<?xml version='1.0' encoding='UTF-8'?><gpx version="1.1" creator="JPX - https://github.com/jenetics/jpx" xmlns="http://www.topografix.com/GPX/1/1"><trk><trkseg><trkpt lat="43.298528643873944" lon="1.4470707676753771"><ele>305.0</ele><time>2026-04-30T17:07:57Z</time></trkpt><trkpt lat="43.2985583609777" lon="1.4469638284715363"><ele>305.0</ele><time>2026-04-30T17:07:59Z</time></trkpt><trkpt lat="43.29855436412609" lon="1.44687600296606"><ele>305.0</ele><time>2026-04-30T17:08:02Z</time></trkpt><trkpt lat="43.29855689624506" lon="1.4467881750415366"><ele>305.0</ele><time>2026-04-30T17:08:04Z</time></trkpt><trkpt lat="43.298484269109224" lon="1.4466700419127745"><ele>305.0</ele><time>2026-04-30T17:08:06Z</time></trkpt><trkpt lat="43.298460733564596" lon="1.446539435418582"><ele>305.0</ele><time>2026-04-30T17:08:08Z</time></trkpt><trkpt lat="43.298392488583204" lon="1.446473472814147"><ele>305.0</ele><time>2026-04-30T17:08:09Z</time></trkpt><trkpt lat="43.29836746775496" lon="1.446317234138581"><ele>305.0</ele><time>2026-04-30T17:08:11.999Z</time></trkpt><trkpt lat="43.29830870405109" lon="1.446162477790726"><ele>305.0</ele><time>2026-04-30T17:08:15.999Z</time></trkpt><trkpt lat="43.298262831437164" lon="1.4460473869095176"><ele>305.0</ele><time>2026-04-30T17:08:16.999Z</time></trkpt><trkpt lat="43.298191540849594" lon="1.4459438501484856"><ele>305.0</ele><time>2026-04-30T17:08:17.999Z</time></trkpt><trkpt lat="43.29810653963559" lon="1.4458687463543143"><ele>304.2857142857143</ele><time>2026-04-30T17:08:18.999Z</time></trkpt><trkpt lat="43.298064156016856" lon="1.445782330343798"><ele>303.57142857142856</ele><time>2026-04-30T17:08:19.999Z</time></trkpt><trkpt lat="43.29801593835266" lon="1.44571960836734"><ele>302.85714285714283</ele><time>2026-04-30T17:08:20.999Z</time></trkpt><trkpt lat="43.29796111367624" lon="1.4456633011248012"><ele>302.1428571428571</ele><time>2026-04-30T17:08:21.999Z</time></trkpt><trkpt lat="43.2979435872133" lon="1.4455759921725433"><ele>301.42857142857144</ele><time>2026-04-30T17:08:22.999Z</time></trkpt><trkpt lat="43.29789877083915" lon="1.4455099259167778"><ele>300.71428571428567</ele><time>2026-04-30T17:08:23.999Z</time></trkpt><trkpt lat="43.297834496611465" lon="1.4454268639901533"><ele>300.0</ele><time>2026-04-30T17:08:25.999Z</time></trkpt><trkpt lat="43.29778580915628" lon="1.445346861843788"><ele>298.8333333333333</ele><time>2026-04-30T17:08:26.999Z</time></trkpt><trkpt lat="43.297827765425936" lon="1.4452799544875758"><ele>297.6666666666667</ele><time>2026-04-30T17:08:28.999Z</time></trkpt><trkpt lat="43.2977476121607" lon="1.4451802480553613"><ele>296.5</ele><time>2026-04-30T17:08:32Z</time></trkpt><trkpt lat="43.29770421673056" lon="1.445104713565754"><ele>295.33333333333337</ele><time>2026-04-30T17:08:33Z</time></trkpt><trkpt lat="43.297703287396224" lon="1.444988660657092"><ele>294.1666666666667</ele><time>2026-04-30T17:08:34Z</time></trkpt><trkpt lat="43.2976983989714" lon="1.4448314098343034"><ele>293.0</ele><time>2026-04-30T17:08:36Z</time></trkpt><trkpt lat="43.297638600109124" lon="1.4447394385771248"><ele>293.0</ele><time>2026-04-30T17:08:37Z</time></trkpt><trkpt lat="43.29760823680775" lon="1.4446575309646676"><ele>293.0</ele><time>2026-04-30T17:08:38Z</time></trkpt><trkpt lat="43.2975718711293" lon="1.4445149476167496"><ele>293.0</ele><time>2026-04-30T17:08:40Z</time></trkpt><trkpt lat="43.29754374360719" lon="1.4443689688581052"><ele>293.0</ele><time>2026-04-30T17:08:42Z</time></trkpt><trkpt lat="43.2974836768583" lon="1.4442560559519382"><ele>293.0</ele><time>2026-04-30T17:08:44Z</time></trkpt><trkpt lat="43.297478359933294" lon="1.4441410148720124"><ele>291.1666666666667</ele><time>2026-04-30T17:08:46Z</time></trkpt><trkpt lat="43.29750568469046" lon="1.4440457910232651"><ele>289.33333333333337</ele><time>2026-04-30T17:08:49Z</time></trkpt><trkpt lat="43.29750373291496" lon="1.443955307378027"><ele>287.5</ele><time>2026-04-30T17:08:50Z</time></trkpt><trkpt lat="43.297542730664404" lon="1.4438771124359295"><ele>285.6666666666667</ele><time>2026-04-30T17:08:53Z</time></trkpt><trkpt lat="43.29760933091074" lon="1.4439722453954562"><ele>283.8333333333333</ele><time>2026-04-30T17:08:57Z</time></trkpt><trkpt lat="43.29766727926828" lon="1.4440504413085822"><ele>282.0</ele><time>2026-04-30T17:08:59Z</time></trkpt><trkpt lat="43.29773046390803" lon="1.444111628914279"><ele>282.0</ele><time>2026-04-30T17:09:01Z</time></trkpt><trkpt lat="43.297771427146195" lon="1.4442170857298466"><ele>282.0</ele><time>2026-04-30T17:09:03Z</time></trkpt><trkpt lat="43.29784573049426" lon="1.4442855502615004"><ele>282.0</ele><time>2026-04-30T17:09:05Z</time></trkpt><trkpt lat="43.29790198612539" lon="1.444373165086881"><ele>282.0</ele><time>2026-04-30T17:09:09Z</time></trkpt><trkpt lat="43.29798363502104" lon="1.4444617913082263"><ele>282.0</ele><time>2026-04-30T17:09:11Z</time></trkpt><trkpt lat="43.29804957306552" lon="1.4445307980387034"><ele>282.0</ele><time>2026-04-30T17:09:13Z</time></trkpt><trkpt lat="43.29811029028696" lon="1.444605467696754"><ele>282.0</ele><time>2026-04-30T17:09:15Z</time></trkpt><trkpt lat="43.29817343159528" lon="1.4446554244082779"><ele>282.0</ele><time>2026-04-30T17:09:18Z</time></trkpt><trkpt lat="43.298220337071044" lon="1.444725349030302"><ele>282.0</ele><time>2026-04-30T17:09:20Z</time></trkpt><trkpt lat="43.298282643680146" lon="1.444775411912369"><ele>282.0</ele><time>2026-04-30T17:09:23Z</time></trkpt><trkpt lat="43.29832998842693" lon="1.4448354990016414"><ele>282.0</ele><time>2026-04-30T17:09:25Z</time></trkpt><trkpt lat="43.29838945930246" lon="1.4448800133396233"><ele>282.0</ele><time>2026-04-30T17:09:29Z</time></trkpt><trkpt lat="43.29845539359889" lon="1.444908348927315"><ele>282.0</ele><time>2026-04-30T17:09:32Z</time></trkpt><trkpt lat="43.29852985713582" lon="1.4449336702263451"><ele>282.0</ele><time>2026-04-30T17:09:35Z</time></trkpt><trkpt lat="43.298583888387085" lon="1.4449908975101406"><ele>282.0</ele><time>2026-04-30T17:09:39Z</time></trkpt><trkpt lat="43.2986602791352" lon="1.4450205895259134"><ele>282.0</ele><time>2026-04-30T17:09:41Z</time></trkpt><trkpt lat="43.29873567296218" lon="1.4450664665274562"><ele>282.0</ele><time>2026-04-30T17:09:43Z</time></trkpt><trkpt lat="43.298793334093396" lon="1.4451093829507486"><ele>282.0</ele><time>2026-04-30T17:09:46Z</time></trkpt><trkpt lat="43.2988646292436" lon="1.4451911050346111"><ele>282.0</ele><time>2026-04-30T17:09:49Z</time></trkpt><trkpt lat="43.29892144029317" lon="1.4452366910099896"><ele>279.3333333333333</ele><time>2026-04-30T17:09:51Z</time></trkpt><trkpt lat="43.29900289707681" lon="1.445320616406969"><ele>276.6666666666667</ele><time>2026-04-30T17:09:55Z</time></trkpt><trkpt lat="43.299083332112325" lon="1.4453820981910377"><ele>274.0</ele><time>2026-04-30T17:09:57Z</time></trkpt><trkpt lat="43.29915053385389" lon="1.445421769339853"><ele>271.33333333333337</ele><time>2026-04-30T17:09:58Z</time></trkpt><trkpt lat="43.29922428486178" lon="1.4454455494875644"><ele>268.6666666666667</ele><time>2026-04-30T17:09:59.999Z</time></trkpt><trkpt lat="43.29929000755281" lon="1.4454352116069327"><ele>266.0</ele><time>2026-04-30T17:10:01.999Z</time></trkpt><trkpt lat="43.29937152826174" lon="1.445367652210179"><ele>266.0</ele><time>2026-04-30T17:10:04.999Z</time></trkpt><trkpt lat="43.299457497581805" lon="1.4453366642351773"><ele>266.0</ele><time>2026-04-30T17:10:08.999Z</time></trkpt><trkpt lat="43.29952620204328" lon="1.4453699025833646"><ele>266.0</ele><time>2026-04-30T17:10:23.999Z</time></trkpt><trkpt lat="43.299598618504405" lon="1.4453821888395164"><ele>266.0</ele><time>2026-04-30T17:10:25.999Z</time></trkpt><trkpt lat="43.2996432593007" lon="1.4454479538550893"><ele>266.0</ele><time>2026-04-30T17:10:28.999Z</time></trkpt><trkpt lat="43.29973448281744" lon="1.4454388104528515"><ele>266.0</ele><time>2026-04-30T17:10:30.999Z</time></trkpt><trkpt lat="43.299798974164595" lon="1.4454206896790915"><ele>264.8</ele><time>2026-04-30T17:10:31.999Z</time></trkpt><trkpt lat="43.29986973626588" lon="1.4454000878819515"><ele>263.6</ele><time>2026-04-30T17:10:33.999Z</time></trkpt><trkpt lat="43.299993372017404" lon="1.4454225219855197"><ele>262.4</ele><time>2026-04-30T17:10:39Z</time></trkpt><trkpt lat="43.30008863076975" lon="1.4454409925407108"><ele>261.2</ele><time>2026-04-30T17:10:41Z</time></trkpt><trkpt lat="43.30019281902477" lon="1.4454844722839555"><ele>260.0</ele><time>2026-04-30T17:10:44Z</time></trkpt><trkpt lat="43.300240806609175" lon="1.4455735202897069"><ele>260.0</ele><time>2026-04-30T17:10:46Z</time></trkpt><trkpt lat="43.300306598911526" lon="1.4456532414991266"><ele>260.0</ele><time>2026-04-30T17:10:49Z</time></trkpt><trkpt lat="43.30039721541859" lon="1.4455890842304695"><ele>260.0</ele><time>2026-04-30T17:10:51Z</time></trkpt><trkpt lat="43.300450412611916" lon="1.4455085030740635"><ele>260.0</ele><time>2026-04-30T17:10:53Z</time></trkpt><trkpt lat="43.300512466651604" lon="1.4454217801627944"><ele>260.0</ele><time>2026-04-30T17:10:55Z</time></trkpt><trkpt lat="43.3005633856279" lon="1.4453678654335476"><ele>260.0</ele><time>2026-04-30T17:10:56Z</time></trkpt><trkpt lat="43.30059632414019" lon="1.4452668096937444"><ele>257.0</ele><time>2026-04-30T17:10:58Z</time></trkpt><trkpt lat="43.30065170631719" lon="1.445208341456949"><ele>254.0</ele><time>2026-04-30T17:11:02Z</time></trkpt><trkpt lat="43.30067646402467" lon="1.4452942730568914"><ele>251.0</ele><time>2026-04-30T17:11:05Z</time></trkpt><trkpt lat="43.30074411587087" lon="1.4453332721983425"><ele>248.0</ele><time>2026-04-30T17:11:07Z</time></trkpt><trkpt lat="43.30081771103925" lon="1.445397557040198"><ele>245.00000000000003</ele><time>2026-04-30T17:11:09Z</time></trkpt><trkpt lat="43.300895882698626" lon="1.4454428624700673"><ele>242.0</ele><time>2026-04-30T17:11:11Z</time></trkpt><trkpt lat="43.30093835114387" lon="1.4455260532193108"><ele>241.83333333333334</ele><time>2026-04-30T17:11:13Z</time></trkpt><trkpt lat="43.301038620407766" lon="1.4455785652288244"><ele>241.66666666666669</ele><time>2026-04-30T17:11:15Z</time></trkpt><trkpt lat="43.30110298599699" lon="1.4456401586506584"><ele>241.5</ele><time>2026-04-30T17:11:17Z</time></trkpt><trkpt lat="43.301172845059696" lon="1.445649744055951"><ele>241.33333333333331</ele><time>2026-04-30T17:11:21Z</time></trkpt><trkpt lat="43.30123367682844" lon="1.445677439590747"><ele>241.16666666666666</ele><time>2026-04-30T17:11:26Z</time></trkpt><trkpt lat="43.301315593982395" lon="1.4456766664843947"><ele>241.0</ele><time>2026-04-30T17:11:35Z</time></trkpt><trkpt lat="43.30142307619896" lon="1.445685930505507"><ele>240.4</ele><time>2026-04-30T17:12:36.999Z</time></trkpt><trkpt lat="43.30148778052461" lon="1.4457197335688745"><ele>239.8</ele><time>2026-04-30T17:12:52Z</time></trkpt><trkpt lat="43.30165593918483" lon="1.4457812936208463"><ele>239.20000000000002</ele><time>2026-04-30T17:15:07Z</time></trkpt><trkpt lat="43.30172680266107" lon="1.4458540763916528"><ele>238.60000000000002</ele><time>2026-04-30T17:15:08Z</time></trkpt><trkpt lat="43.301773900742226" lon="1.445922045499993"><ele>238.0</ele><time>2026-04-30T17:15:09Z</time></trkpt><trkpt lat="43.30184533791626" lon="1.4459860615603506"><ele>237.99999999999997</ele><time>2026-04-30T17:15:10Z</time></trkpt><trkpt lat="43.30190184253334" lon="1.4460388739187606"><ele>238.0</ele><time>2026-04-30T17:15:11Z</time></trkpt><trkpt lat="43.30197017385617" lon="1.4460852086497482"><ele>238.0</ele><time>2026-04-30T17:15:12Z</time></trkpt><trkpt lat="43.3020314819512" lon="1.446136191027821"><ele>238.0</ele><time>2026-04-30T17:15:13Z</time></trkpt><trkpt lat="43.302090196812706" lon="1.4461969557983747"><ele>237.99999999999997</ele><time>2026-04-30T17:15:14Z</time></trkpt><trkpt lat="43.302147516756115" lon="1.4462620249016946"><ele>238.0</ele><time>2026-04-30T17:15:15Z</time></trkpt><trkpt lat="43.30222828650019" lon="1.4463916379219404"><ele>238.66666666666666</ele><time>2026-04-30T17:15:17Z</time></trkpt><trkpt lat="43.30228085062059" lon="1.4464578725508188"><ele>239.33333333333331</ele><time>2026-04-30T17:15:18Z</time></trkpt><trkpt lat="43.30240808606678" lon="1.4465490207215408"><ele>240.0</ele><time>2026-04-30T17:15:20Z</time></trkpt><trkpt lat="43.30248638881887" lon="1.4466149241987833"><ele>240.66666666666669</ele><time>2026-04-30T17:15:21Z</time></trkpt><trkpt lat="43.30256118073608" lon="1.4466509660105549"><ele>241.33333333333334</ele><time>2026-04-30T17:15:22Z</time></trkpt><trkpt lat="43.30261509010642" lon="1.4466960962541324"><ele>242.0</ele><time>2026-04-30T17:15:23Z</time></trkpt><trkpt lat="43.302671661875735" lon="1.4467384135266355"><ele>242.00000000000003</ele><time>2026-04-30T17:15:24Z</time></trkpt><trkpt lat="43.30277863902699" lon="1.446857482510548"><ele>242.0</ele><time>2026-04-30T17:15:26Z</time></trkpt><trkpt lat="43.302835241128896" lon="1.4469255789897222"><ele>242.0</ele><time>2026-04-30T17:15:27Z</time></trkpt><trkpt lat="43.302891995043744" lon="1.4469879940418464"><ele>242.0</ele><time>2026-04-30T17:15:28Z</time></trkpt><trkpt lat="43.302946962143565" lon="1.4470496426014483"><ele>242.00000000000003</ele><time>2026-04-30T17:15:29Z</time></trkpt><trkpt lat="43.30301681457001" lon="1.447114248718942"><ele>242.0</ele><time>2026-04-30T17:15:30Z</time></trkpt><trkpt lat="43.30308227326474" lon="1.4471872917551123"><ele>243.00000000000003</ele><time>2026-04-30T17:15:31Z</time></trkpt><trkpt lat="43.303159447855656" lon="1.4473230174098943"><ele>244.0</ele><time>2026-04-30T17:15:33Z</time></trkpt><trkpt lat="43.30320772474757" lon="1.4474144132045932"><ele>245.0</ele><time>2026-04-30T17:15:34Z</time></trkpt><trkpt lat="43.303245263331604" lon="1.4474877782040352"><ele>246.0</ele><time>2026-04-30T17:15:35Z</time></trkpt><trkpt lat="43.30329949139089" lon="1.4476003804812687"><ele>247.00000000000003</ele><time>2026-04-30T17:15:36Z</time></trkpt><trkpt lat="43.30335217029706" lon="1.4476735217632093"><ele>248.0</ele><time>2026-04-30T17:15:37Z</time></trkpt><trkpt lat="43.30342688513473" lon="1.4478423295155713"><ele>246.8</ele><time>2026-04-30T17:15:39Z</time></trkpt><trkpt lat="43.30344207077578" lon="1.4479767341245884"><ele>245.60000000000002</ele><time>2026-04-30T17:15:40Z</time></trkpt><trkpt lat="43.30347568732379" lon="1.448082552179903"><ele>244.39999999999998</ele><time>2026-04-30T17:15:41Z</time></trkpt><trkpt lat="43.303511675566" lon="1.4482058213609204"><ele>243.2</ele><time>2026-04-30T17:15:42Z</time></trkpt><trkpt lat="43.30352023091826" lon="1.448376335060355"><ele>242.0</ele><time>2026-04-30T17:15:43Z</time></trkpt><trkpt lat="43.3035549202623" lon="1.44852579095559"><ele>242.0</ele><time>2026-04-30T17:15:44Z</time></trkpt><trkpt lat="43.30358909306405" lon="1.4486702695637577"><ele>242.0</ele><time>2026-04-30T17:15:45Z</time></trkpt><trkpt lat="43.303628646674724" lon="1.4488140266378011"><ele>242.0</ele><time>2026-04-30T17:15:46Z</time></trkpt><trkpt lat="43.30367427480871" lon="1.4489436553245802"><ele>242.0</ele><time>2026-04-30T17:15:47Z</time></trkpt><trkpt lat="43.30371779167385" lon="1.449083189113897"><ele>242.0</ele><time>2026-04-30T17:15:48Z</time></trkpt><trkpt lat="43.303764096616334" lon="1.4492132690420467"><ele>241.6</ele><time>2026-04-30T17:15:49Z</time></trkpt><trkpt lat="43.30380531009592" lon="1.4493448155866953"><ele>241.2</ele><time>2026-04-30T17:15:50Z</time></trkpt><trkpt lat="43.30385822353651" lon="1.4494832531189004"><ele>240.8</ele><time>2026-04-30T17:15:51Z</time></trkpt><trkpt lat="43.303932114308374" lon="1.4496256212286418"><ele>240.4</ele><time>2026-04-30T17:15:52Z</time></trkpt><trkpt lat="43.303985077161975" lon="1.4497435452759735"><ele>240.0</ele><time>2026-04-30T17:15:53Z</time></trkpt><trkpt lat="43.30404607899821" lon="1.4498747000109047"><ele>244.5</ele><time>2026-04-30T17:15:54Z</time></trkpt><trkpt lat="43.30409171859695" lon="1.449975332524592"><ele>249.0</ele><time>2026-04-30T17:15:55Z</time></trkpt><trkpt lat="43.30416107802668" lon="1.4501414177669334"><ele>253.5</ele><time>2026-04-30T17:15:56Z</time></trkpt><trkpt lat="43.30420820702464" lon="1.4502982988347983"><ele>258.0</ele><time>2026-04-30T17:15:56.999Z</time></trkpt><trkpt lat="43.30424363937863" lon="1.4504759725644452"><ele>258.0</ele><time>2026-04-30T17:15:57.999Z</time></trkpt><trkpt lat="43.30427388261743" lon="1.4506458588940014"><ele>258.0</ele><time>2026-04-30T17:15:58.999Z</time></trkpt><trkpt lat="43.30429979229758" lon="1.4508390988916444"><ele>258.0</ele><time>2026-04-30T17:15:59.999Z</time></trkpt><trkpt lat="43.30431254994084" lon="1.4510044950078187"><ele>258.0</ele><time>2026-04-30T17:16:00.999Z</time></trkpt><trkpt lat="43.30432866658061" lon="1.4511393848618004"><ele>258.0</ele><time>2026-04-30T17:16:01.999Z</time></trkpt><trkpt lat="43.30434865962007" lon="1.451234961147281"><ele>258.0</ele><time>2026-04-30T17:16:02.999Z</time></trkpt><trkpt lat="43.30439595894382" lon="1.4513658234505864"><ele>258.0</ele><time>2026-04-30T17:16:04.999Z</time></trkpt><trkpt lat="43.304378112648294" lon="1.4514978562732306"><ele>258.0</ele><time>2026-04-30T17:16:06.999Z</time></trkpt><trkpt lat="43.304483370783124" lon="1.4513935147360948"><ele>258.0</ele><time>2026-04-30T17:16:10.999Z</time></trkpt><trkpt lat="43.304489214350944" lon="1.4512805035939074"><ele>258.0</ele><time>2026-04-30T17:16:11.999Z</time></trkpt><trkpt lat="43.30450337921539" lon="1.4511298894769677"><ele>258.0</ele><time>2026-04-30T17:16:12.999Z</time></trkpt><trkpt lat="43.30453623225445" lon="1.4509859649248105"><ele>258.0</ele><time>2026-04-30T17:16:13.999Z</time></trkpt><trkpt lat="43.304561973408674" lon="1.4508415243615924"><ele>258.0</ele><time>2026-04-30T17:16:14.999Z</time></trkpt><trkpt lat="43.304593293279524" lon="1.4506781817504126"><ele>258.0</ele><time>2026-04-30T17:16:15.999Z</time></trkpt><trkpt lat="43.30464482199445" lon="1.4505119710382237"><ele>258.0</ele><time>2026-04-30T17:16:16.999Z</time></trkpt><trkpt lat="43.30468400869847" lon="1.4503280134469123"><ele>258.0</ele><time>2026-04-30T17:16:17.999Z</time></trkpt><trkpt lat="43.30470768774355" lon="1.4501389362689765"><ele>258.0</ele><time>2026-04-30T17:16:18.999Z</time></trkpt><trkpt lat="43.30474759656622" lon="1.449963167558288"><ele>262.0</ele><time>2026-04-30T17:16:19.999Z</time></trkpt><trkpt lat="43.30478753237924" lon="1.4497925024054796"><ele>266.0</ele><time>2026-04-30T17:16:20.999Z</time></trkpt><trkpt lat="43.304826514649534" lon="1.4496543810699807"><ele>270.0</ele><time>2026-04-30T17:16:21.999Z</time></trkpt><trkpt lat="43.304846843799474" lon="1.4495009636878133"><ele>274.0</ele><time>2026-04-30T17:16:22.999Z</time></trkpt><trkpt lat="43.30487374749748" lon="1.4493434583666578"><ele>274.75</ele><time>2026-04-30T17:16:23.999Z</time></trkpt><trkpt lat="43.30491248813901" lon="1.4492068051449911"><ele>275.5</ele><time>2026-04-30T17:16:24.999Z</time></trkpt><trkpt lat="43.3049397029061" lon="1.4490565789350534"><ele>276.25</ele><time>2026-04-30T17:16:25.999Z</time></trkpt><trkpt lat="43.30496797469217" lon="1.4489201002250525"><ele>277.0</ele><time>2026-04-30T17:16:26.999Z</time></trkpt><trkpt lat="43.30498607502347" lon="1.448740584306706"><ele>277.0</ele><time>2026-04-30T17:16:27.999Z</time></trkpt><trkpt lat="43.304958015345996" lon="1.4485508441699149"><ele>277.0</ele><time>2026-04-30T17:16:28.999Z</time></trkpt><trkpt lat="43.30492386719698" lon="1.4483515544240226"><ele>277.0</ele><time>2026-04-30T17:16:29.999Z</time></trkpt><trkpt lat="43.304904542471604" lon="1.4481541466297632"><ele>277.0</ele><time>2026-04-30T17:16:30.999Z</time></trkpt><trkpt lat="43.30488899244883" lon="1.447957565939157"><ele>277.3333333333333</ele><time>2026-04-30T17:16:31.999Z</time></trkpt><trkpt lat="43.304896171454054" lon="1.447747172902466"><ele>277.6666666666667</ele><time>2026-04-30T17:16:32.999Z</time></trkpt><trkpt lat="43.30489882408958" lon="1.4475425027846114"><ele>278.0</ele><time>2026-04-30T17:16:33.999Z</time></trkpt><trkpt lat="43.30490996770771" lon="1.447330077024148"><ele>278.0</ele><time>2026-04-30T17:16:34.999Z</time></trkpt><trkpt lat="43.30492428928753" lon="1.4471049284783783"><ele>278.0</ele><time>2026-04-30T17:16:35.999Z</time></trkpt><trkpt lat="43.3049332301858" lon="1.4469185768752664"><ele>278.0</ele><time>2026-04-30T17:16:36.999Z</time></trkpt><trkpt lat="43.304930352624446" lon="1.4466687814167107"><ele>278.0</ele><time>2026-04-30T17:16:37.999Z</time></trkpt><trkpt lat="43.30490566301403" lon="1.446452938140593"><ele>278.0</ele><time>2026-04-30T17:16:38.999Z</time></trkpt><trkpt lat="43.30486384159394" lon="1.4462583017692139"><ele>278.0</ele><time>2026-04-30T17:16:39.999Z</time></trkpt><trkpt lat="43.30481345831672" lon="1.4460520722713173"><ele>278.6666666666667</ele><time>2026-04-30T17:16:40.999Z</time></trkpt><trkpt lat="43.304753286400754" lon="1.4458595646427954"><ele>279.3333333333333</ele><time>2026-04-30T17:16:41.999Z</time></trkpt><trkpt lat="43.30469090573679" lon="1.4456691594069333"><ele>280.0</ele><time>2026-04-30T17:16:42.999Z</time></trkpt><trkpt lat="43.30460912457016" lon="1.4455042740230701"><ele>281.5</ele><time>2026-04-30T17:16:43.999Z</time></trkpt><trkpt lat="43.30455458254329" lon="1.4453328620866481"><ele>283.0</ele><time>2026-04-30T17:16:44.999Z</time></trkpt><trkpt lat="43.304480302240016" lon="1.4451705899172231"><ele>284.5</ele><time>2026-04-30T17:16:45.999Z</time></trkpt><trkpt lat="43.304403033138456" lon="1.4450213645545316"><ele>286.0</ele><time>2026-04-30T17:16:46.999Z</time></trkpt><trkpt lat="43.304350190739584" lon="1.4448717761884828"><ele>286.0</ele><time>2026-04-30T17:16:47.999Z</time></trkpt><trkpt lat="43.304300133950136" lon="1.4447346955240834"><ele>286.0</ele><time>2026-04-30T17:16:48.999Z</time></trkpt><trkpt lat="43.30424737059659" lon="1.4445980951512538"><ele>286.0</ele><time>2026-04-30T17:16:49.999Z</time></trkpt><trkpt lat="43.30418931516665" lon="1.4444449952766725"><ele>286.0</ele><time>2026-04-30T17:16:50.999Z</time></trkpt><trkpt lat="43.304125916594785" lon="1.4443084614174797"><ele>287.0</ele><time>2026-04-30T17:16:51.999Z</time></trkpt><trkpt lat="43.30407184337059" lon="1.4441691117334277"><ele>288.0</ele><time>2026-04-30T17:16:52.999Z</time></trkpt><trkpt lat="43.304017958481275" lon="1.4440389494407848"><ele>289.0</ele><time>2026-04-30T17:16:53.999Z</time></trkpt><trkpt lat="43.303962353179465" lon="1.4439041009558853"><ele>290.0</ele><time>2026-04-30T17:16:55Z</time></trkpt><trkpt lat="43.30390878395342" lon="1.4437602739156754"><ele>291.25</ele><time>2026-04-30T17:16:56Z</time></trkpt><trkpt lat="43.303855403319496" lon="1.4436142086729993"><ele>292.5</ele><time>2026-04-30T17:16:57Z</time></trkpt><trkpt lat="43.30379556362604" lon="1.443465303930627"><ele>293.75</ele><time>2026-04-30T17:16:58Z</time></trkpt><trkpt lat="43.3037319207533" lon="1.443312209423169"><ele>295.0</ele><time>2026-04-30T17:16:59Z</time></trkpt><trkpt lat="43.30367293030251" lon="1.4431422830638134"><ele>295.0</ele><time>2026-04-30T17:17:00Z</time></trkpt><trkpt lat="43.3036086378021" lon="1.442978053872057"><ele>295.0</ele><time>2026-04-30T17:17:01Z</time></trkpt><trkpt lat="43.30354565804396" lon="1.4428140593893364"><ele>295.0</ele><time>2026-04-30T17:17:02Z</time></trkpt><trkpt lat="43.30350703092968" lon="1.4426522482961934"><ele>295.0</ele><time>2026-04-30T17:17:03Z</time></trkpt><trkpt lat="43.30340100206518" lon="1.4424831636388327"><ele>294.75</ele><time>2026-04-30T17:17:04Z</time></trkpt><trkpt lat="43.30329523607555" lon="1.4423921714114183"><ele>294.5</ele><time>2026-04-30T17:17:05Z</time></trkpt><trkpt lat="43.303196041901046" lon="1.442288619362724"><ele>294.25</ele><time>2026-04-30T17:17:06Z</time></trkpt><trkpt lat="43.303089326601416" lon="1.442195013354488"><ele>294.0</ele><time>2026-04-30T17:17:07Z</time></trkpt><trkpt lat="43.30299100081075" lon="1.4420990473591513"><ele>294.0</ele><time>2026-04-30T17:17:08Z</time></trkpt><trkpt lat="43.3028970225787" lon="1.4420049610683519"><ele>294.0</ele><time>2026-04-30T17:17:09Z</time></trkpt><trkpt lat="43.30279913403802" lon="1.4419108892095664"><ele>294.0</ele><time>2026-04-30T17:17:10Z</time></trkpt><trkpt lat="43.30269375089042" lon="1.4418196614406018"><ele>294.0</ele><time>2026-04-30T17:17:11Z</time></trkpt><trkpt lat="43.302586797667665" lon="1.441711989092047"><ele>294.0</ele><time>2026-04-30T17:17:12Z</time></trkpt><trkpt lat="43.30247477749688" lon="1.441599789951834"><ele>294.0</ele><time>2026-04-30T17:17:13Z</time></trkpt><trkpt lat="43.302362535379494" lon="1.441487068885499"><ele>294.0</ele><time>2026-04-30T17:17:14Z</time></trkpt><trkpt lat="43.30225028574796" lon="1.44137626973176"><ele>294.0</ele><time>2026-04-30T17:17:15Z</time></trkpt><trkpt lat="43.302135178149264" lon="1.4412687573840695"><ele>295.5</ele><time>2026-04-30T17:17:16Z</time></trkpt><trkpt lat="43.30201752812407" lon="1.4411611665289805"><ele>297.0</ele><time>2026-04-30T17:17:17Z</time></trkpt><trkpt lat="43.30190180305571" lon="1.4410534430185402"><ele>298.5</ele><time>2026-04-30T17:17:18Z</time></trkpt><trkpt lat="43.30178782117631" lon="1.440937272498471"><ele>300.0</ele><time>2026-04-30T17:17:19Z</time></trkpt><trkpt lat="43.30167190504039" lon="1.4408110710434627"><ele>300.0</ele><time>2026-04-30T17:17:20Z</time></trkpt><trkpt lat="43.30156539486637" lon="1.4407025103164857"><ele>300.0</ele><time>2026-04-30T17:17:21Z</time></trkpt><trkpt lat="43.301467327143044" lon="1.4405646097903093"><ele>300.0</ele><time>2026-04-30T17:17:22Z</time></trkpt><trkpt lat="43.30139575739132" lon="1.4404007713510605"><ele>300.0</ele><time>2026-04-30T17:17:23Z</time></trkpt><trkpt lat="43.301318010614224" lon="1.440231702406739"><ele>299.6666666666667</ele><time>2026-04-30T17:17:24Z</time></trkpt><trkpt lat="43.30123280522425" lon="1.4400486269239727"><ele>299.33333333333337</ele><time>2026-04-30T17:17:25Z</time></trkpt><trkpt lat="43.301138072028486" lon="1.4398516777014863"><ele>299.0</ele><time>2026-04-30T17:17:26Z</time></trkpt><trkpt lat="43.301067694507225" lon="1.4396920724927835"><ele>299.6666666666667</ele><time>2026-04-30T17:17:27Z</time></trkpt><trkpt lat="43.30098613561415" lon="1.439514725939402"><ele>300.3333333333333</ele><time>2026-04-30T17:17:28Z</time></trkpt><trkpt lat="43.300907488067125" lon="1.439327493687876"><ele>301.0</ele><time>2026-04-30T17:17:29Z</time></trkpt><trkpt lat="43.300831091560966" lon="1.4391405581734764"><ele>301.0</ele><time>2026-04-30T17:17:30Z</time></trkpt><trkpt lat="43.30075390101516" lon="1.4389532394757212"><ele>301.0</ele><time>2026-04-30T17:17:31Z</time></trkpt><trkpt lat="43.300663067391255" lon="1.438760623296743"><ele>301.0</ele><time>2026-04-30T17:17:32Z</time></trkpt><trkpt lat="43.300571658259564" lon="1.4385646151291906"><ele>302.0</ele><time>2026-04-30T17:17:33Z</time></trkpt><trkpt lat="43.30048795372133" lon="1.438363325898165"><ele>303.0</ele><time>2026-04-30T17:17:34Z</time></trkpt><trkpt lat="43.30040607317028" lon="1.4381825773234884"><ele>304.0</ele><time>2026-04-30T17:17:35Z</time></trkpt><trkpt lat="43.30032748201243" lon="1.4379900673093842"><ele>303.66666666666663</ele><time>2026-04-30T17:17:36Z</time></trkpt><trkpt lat="43.30024156854802" lon="1.4378061699542122"><ele>303.3333333333333</ele><time>2026-04-30T17:17:37Z</time></trkpt><trkpt lat="43.30015939127185" lon="1.4376206771410172"><ele>303.0</ele><time>2026-04-30T17:17:38Z</time></trkpt><trkpt lat="43.30007947959472" lon="1.4374431459277082"><ele>303.0</ele><time>2026-04-30T17:17:39Z</time></trkpt><trkpt lat="43.300001770956996" lon="1.4372615234602506"><ele>303.0</ele><time>2026-04-30T17:17:40Z</time></trkpt><trkpt lat="43.299923613638214" lon="1.4370769495097557"><ele>303.0</ele><time>2026-04-30T17:17:41Z</time></trkpt><trkpt lat="43.299845558373505" lon="1.4368940157428678"><ele>303.0</ele><time>2026-04-30T17:17:42Z</time></trkpt><trkpt lat="43.29976834593042" lon="1.4367093366753763"><ele>303.0</ele><time>2026-04-30T17:17:43Z</time></trkpt><trkpt lat="43.29968971640446" lon="1.4365267204990622"><ele>303.0</ele><time>2026-04-30T17:17:44Z</time></trkpt><trkpt lat="43.29961235827517" lon="1.4363473665569264"><ele>304.0</ele><time>2026-04-30T17:17:45Z</time></trkpt><trkpt lat="43.29953597399552" lon="1.4361654352970845"><ele>305.0</ele><time>2026-04-30T17:17:46Z</time></trkpt><trkpt lat="43.29946424554559" lon="1.4359893292053307"><ele>306.0</ele><time>2026-04-30T17:17:47Z</time></trkpt><trkpt lat="43.2993908797898" lon="1.4358168163017138"><ele>307.0</ele><time>2026-04-30T17:17:48Z</time></trkpt><trkpt lat="43.29931478897256" lon="1.4356459307722698"><ele>307.0</ele><time>2026-04-30T17:17:49Z</time></trkpt><trkpt lat="43.29923786977395" lon="1.4354722187260338"><ele>307.0</ele><time>2026-04-30T17:17:50Z</time></trkpt><trkpt lat="43.29916665209754" lon="1.4353078257349816"><ele>307.0</ele><time>2026-04-30T17:17:51Z</time></trkpt><trkpt lat="43.29909621492557" lon="1.4351763870569894"><ele>307.0</ele><time>2026-04-30T17:17:52Z</time></trkpt><trkpt lat="43.29905154169198" lon="1.435047691513724"><ele>307.0</ele><time>2026-04-30T17:17:53Z</time></trkpt><trkpt lat="43.298994369915114" lon="1.4349539269705767"><ele>307.0</ele><time>2026-04-30T17:17:54Z</time></trkpt><trkpt lat="43.29896806671627" lon="1.4348715636109703"><ele>307.0</ele><time>2026-04-30T17:17:55Z</time></trkpt><trkpt lat="43.29894421063108" lon="1.4347459741454909"><ele>307.0</ele><time>2026-04-30T17:17:57Z</time></trkpt><trkpt lat="43.29895007937679" lon="1.434647714702945"><ele>307.0</ele><time>2026-04-30T17:18:00Z</time></trkpt><trkpt lat="43.29914893251814" lon="1.4344385682574816"><ele>307.4</ele><time>2026-04-30T17:18:08.999Z</time></trkpt><trkpt lat="43.2991897335147" lon="1.434353798705397"><ele>307.79999999999995</ele><time>2026-04-30T17:18:09.999Z</time></trkpt><trkpt lat="43.299226769337295" lon="1.4342495366729486"><ele>308.2</ele><time>2026-04-30T17:18:10.999Z</time></trkpt><trkpt lat="43.299247014966014" lon="1.4341499627439507"><ele>308.59999999999997</ele><time>2026-04-30T17:18:11.999Z</time></trkpt><trkpt lat="43.299231695928825" lon="1.4340201262112928"><ele>309.0</ele><time>2026-04-30T17:18:12.999Z</time></trkpt><trkpt lat="43.29926503171135" lon="1.4338516189330608"><ele>309.75</ele><time>2026-04-30T17:18:13.999Z</time></trkpt><trkpt lat="43.29926295622274" lon="1.433663859132124"><ele>310.5</ele><time>2026-04-30T17:18:14.999Z</time></trkpt><trkpt lat="43.29925445135921" lon="1.43346585520364"><ele>311.25</ele><time>2026-04-30T17:18:15.999Z</time></trkpt><trkpt lat="43.299266453203565" lon="1.433309789871191"><ele>312.0</ele><time>2026-04-30T17:18:16.999Z</time></trkpt><trkpt lat="43.299303446896246" lon="1.4331550427737405"><ele>312.0</ele><time>2026-04-30T17:18:17.999Z</time></trkpt><trkpt lat="43.29935537752785" lon="1.4330008001684513"><ele>312.0</ele><time>2026-04-30T17:18:18.999Z</time></trkpt><trkpt lat="43.29945776436408" lon="1.4328786858152618"><ele>312.0</ele><time>2026-04-30T17:18:19.999Z</time></trkpt><trkpt lat="43.29956917152249" lon="1.4327706808999114"><ele>312.0</ele><time>2026-04-30T17:18:20.999Z</time></trkpt><trkpt lat="43.299667274432565" lon="1.4326592205167887"><ele>314.0</ele><time>2026-04-30T17:18:21.999Z</time></trkpt><trkpt lat="43.29981076575414" lon="1.4325298459858775"><ele>316.0</ele><time>2026-04-30T17:18:22.999Z</time></trkpt><trkpt lat="43.299952489558144" lon="1.432384244741104"><ele>318.0</ele><time>2026-04-30T17:18:23.999Z</time></trkpt><trkpt lat="43.3000859517849" lon="1.432243785181099"><ele>318.8</ele><time>2026-04-30T17:18:24.999Z</time></trkpt><trkpt lat="43.30020883262942" lon="1.4321311948481716"><ele>319.6</ele><time>2026-04-30T17:18:25.999Z</time></trkpt><trkpt lat="43.300308938623324" lon="1.4320595680661274"><ele>320.40000000000003</ele><time>2026-04-30T17:18:26.999Z</time></trkpt><trkpt lat="43.300379555142456" lon="1.4319467963136248"><ele>321.20000000000005</ele><time>2026-04-30T17:18:28.999Z</time></trkpt><trkpt lat="43.30042630530426" lon="1.4318701759591657"><ele>322.0</ele><time>2026-04-30T17:18:29.999Z</time></trkpt><trkpt lat="43.300478659720945" lon="1.4317942042345888"><ele>322.0</ele><time>2026-04-30T17:18:31.999Z</time></trkpt><trkpt lat="43.30054371128363" lon="1.4317987416344764"><ele>322.0</ele><time>2026-04-30T17:18:32.999Z</time></trkpt><trkpt lat="43.30061740987802" lon="1.4318153165596927"><ele>322.0</ele><time>2026-04-30T17:18:33.999Z</time></trkpt><trkpt lat="43.30072655357556" lon="1.431940561227386"><ele>322.0</ele><time>2026-04-30T17:18:34.999Z</time></trkpt><trkpt lat="43.30080124224323" lon="1.4320889622375634"><ele>322.0</ele><time>2026-04-30T17:18:35.999Z</time></trkpt><trkpt lat="43.30086903290961" lon="1.4322392774654946"><ele>320.75</ele><time>2026-04-30T17:18:36.999Z</time></trkpt><trkpt lat="43.30093780811176" lon="1.4323829016423626"><ele>319.5</ele><time>2026-04-30T17:18:37.999Z</time></trkpt><trkpt lat="43.30103012614326" lon="1.4325363889183644"><ele>318.25</ele><time>2026-04-30T17:18:38.999Z</time></trkpt><trkpt lat="43.30111990050555" lon="1.4326813869307562"><ele>317.0</ele><time>2026-04-30T17:18:39.999Z</time></trkpt><trkpt lat="43.301190400188915" lon="1.4327619253002606"><ele>317.0</ele><time>2026-04-30T17:18:40.999Z</time></trkpt><trkpt lat="43.301256601819034" lon="1.4328807303260367"><ele>317.0</ele><time>2026-04-30T17:18:41.999Z</time></trkpt><trkpt lat="43.3013390028992" lon="1.4330226049017292"><ele>317.0</ele><time>2026-04-30T17:18:42.999Z</time></trkpt><trkpt lat="43.30142280154621" lon="1.4331706043123333"><ele>317.0</ele><time>2026-04-30T17:18:43.999Z</time></trkpt><trkpt lat="43.30150626669188" lon="1.4332988079371716"><ele>315.5</ele><time>2026-04-30T17:18:44.999Z</time></trkpt><trkpt lat="43.30159470667635" lon="1.43344107127863"><ele>314.0</ele><time>2026-04-30T17:18:45.999Z</time></trkpt><trkpt lat="43.301671386753725" lon="1.4335797770921472"><ele>312.5</ele><time>2026-04-30T17:18:46.999Z</time></trkpt><trkpt lat="43.30173980506855" lon="1.433712947830243"><ele>311.0</ele><time>2026-04-30T17:18:47.999Z</time></trkpt><trkpt lat="43.30180697147615" lon="1.4338409577036706"><ele>310.5</ele><time>2026-04-30T17:18:48.999Z</time></trkpt><trkpt lat="43.30187294311618" lon="1.433966100598697"><ele>310.0</ele><time>2026-04-30T17:18:49.999Z</time></trkpt><trkpt lat="43.30193212039285" lon="1.4340876280409307"><ele>309.5</ele><time>2026-04-30T17:18:50.999Z</time></trkpt><trkpt lat="43.302016363614584" lon="1.4341809453213967"><ele>309.0</ele><time>2026-04-30T17:18:51.999Z</time></trkpt><trkpt lat="43.30209624982085" lon="1.4343094019037936"><ele>309.0</ele><time>2026-04-30T17:18:52.999Z</time></trkpt><trkpt lat="43.30215641233359" lon="1.4344397306579824"><ele>309.0</ele><time>2026-04-30T17:18:53.999Z</time></trkpt><trkpt lat="43.30222788085341" lon="1.4345740002541032"><ele>309.0</ele><time>2026-04-30T17:18:54.999Z</time></trkpt><trkpt lat="43.302305340677144" lon="1.4347198631264546"><ele>309.0</ele><time>2026-04-30T17:18:55.999Z</time></trkpt><trkpt lat="43.30237795446256" lon="1.4348576422261725"><ele>309.0</ele><time>2026-04-30T17:18:56.999Z</time></trkpt><trkpt lat="43.30245412255061" lon="1.4349933717600503"><ele>309.0</ele><time>2026-04-30T17:18:57.999Z</time></trkpt><trkpt lat="43.30251779930088" lon="1.4351110115703638"><ele>309.0</ele><time>2026-04-30T17:18:58.999Z</time></trkpt><trkpt lat="43.30258908567232" lon="1.435221136854298"><ele>309.0</ele><time>2026-04-30T17:18:59.999Z</time></trkpt><trkpt lat="43.30266659796197" lon="1.4353557290009555"><ele>308.8</ele><time>2026-04-30T17:19:01Z</time></trkpt><trkpt lat="43.30273120531113" lon="1.435492025155041"><ele>308.59999999999997</ele><time>2026-04-30T17:19:02Z</time></trkpt><trkpt lat="43.30279942376316" lon="1.4356041643617015"><ele>308.4</ele><time>2026-04-30T17:19:03Z</time></trkpt><trkpt lat="43.30287261083485" lon="1.435701203351133"><ele>308.2</ele><time>2026-04-30T17:19:04Z</time></trkpt><trkpt lat="43.30293223495858" lon="1.435835258657142"><ele>308.0</ele><time>2026-04-30T17:19:05Z</time></trkpt><trkpt lat="43.302992609053085" lon="1.4359540110211957"><ele>308.0</ele><time>2026-04-30T17:19:06Z</time></trkpt><trkpt lat="43.30305523159389" lon="1.4360754087461152"><ele>308.0</ele><time>2026-04-30T17:19:07Z</time></trkpt><trkpt lat="43.303132870887474" lon="1.436213724920624"><ele>308.0</ele><time>2026-04-30T17:19:08Z</time></trkpt><trkpt lat="43.30321389338702" lon="1.4363513467314306"><ele>308.0</ele><time>2026-04-30T17:19:09Z</time></trkpt><trkpt lat="43.30331103560926" lon="1.4364835406293621"><ele>306.4</ele><time>2026-04-30T17:19:10Z</time></trkpt><trkpt lat="43.30340022072066" lon="1.4365957089213128"><ele>304.8</ele><time>2026-04-30T17:19:11Z</time></trkpt><trkpt lat="43.30346076570747" lon="1.4367117549931223"><ele>303.2</ele><time>2026-04-30T17:19:12Z</time></trkpt><trkpt lat="43.303532521133334" lon="1.4368219042805943"><ele>301.6</ele><time>2026-04-30T17:19:13Z</time></trkpt><trkpt lat="43.30359699350114" lon="1.4369297242889216"><ele>300.0</ele><time>2026-04-30T17:19:14Z</time></trkpt><trkpt lat="43.30366665594356" lon="1.4370860851385412"><ele>299.3333333333333</ele><time>2026-04-30T17:19:16Z</time></trkpt><trkpt lat="43.303736393852795" lon="1.4371702028693645"><ele>298.6666666666667</ele><time>2026-04-30T17:19:17Z</time></trkpt><trkpt lat="43.303789464523355" lon="1.43723195116364"><ele>298.0</ele><time>2026-04-30T17:19:18Z</time></trkpt><trkpt lat="43.30383318794912" lon="1.4373183630609019"><ele>297.33333333333337</ele><time>2026-04-30T17:19:19Z</time></trkpt><trkpt lat="43.30387321664238" lon="1.4373901241183618"><ele>296.6666666666667</ele><time>2026-04-30T17:19:20Z</time></trkpt><trkpt lat="43.303941133388776" lon="1.437530391606115"><ele>296.0</ele><time>2026-04-30T17:19:22Z</time></trkpt><trkpt lat="43.30394647624751" lon="1.4376542837482609"><ele>296.0</ele><time>2026-04-30T17:19:24Z</time></trkpt><trkpt lat="43.303956835003575" lon="1.4378078478159917"><ele>296.0</ele><time>2026-04-30T17:19:26Z</time></trkpt><trkpt lat="43.303900518787565" lon="1.4379337664578247"><ele>296.0</ele><time>2026-04-30T17:19:28Z</time></trkpt><trkpt lat="43.30390059558165" lon="1.4380513533283212"><ele>296.0</ele><time>2026-04-30T17:19:30Z</time></trkpt><trkpt lat="43.303980400276096" lon="1.4381531733436188"><ele>296.0</ele><time>2026-04-30T17:19:32Z</time></trkpt><trkpt lat="43.304077644696115" lon="1.4381825233200063"><ele>296.2</ele><time>2026-04-30T17:19:34Z</time></trkpt><trkpt lat="43.304139927949414" lon="1.438234257833655"><ele>296.40000000000003</ele><time>2026-04-30T17:19:35Z</time></trkpt><trkpt lat="43.30422451061967" lon="1.4383201054489192"><ele>296.6</ele><time>2026-04-30T17:19:36Z</time></trkpt><trkpt lat="43.30432138011269" lon="1.438391790143298"><ele>296.8</ele><time>2026-04-30T17:19:37Z</time></trkpt><trkpt lat="43.304422301644" lon="1.4384687314171176"><ele>297.0</ele><time>2026-04-30T17:19:38Z</time></trkpt><trkpt lat="43.30452159202061" lon="1.43854857815693"><ele>297.0</ele><time>2026-04-30T17:19:39Z</time></trkpt><trkpt lat="43.30458379638952" lon="1.438663218578533"><ele>297.0</ele><time>2026-04-30T17:19:40Z</time></trkpt><trkpt lat="43.304677004367726" lon="1.4388169690660142"><ele>297.0</ele><time>2026-04-30T17:19:41Z</time></trkpt><trkpt lat="43.30475912580416" lon="1.4389594544024933"><ele>297.0</ele><time>2026-04-30T17:19:42Z</time></trkpt><trkpt lat="43.30483212721487" lon="1.4391151032422653"><ele>296.6666666666667</ele><time>2026-04-30T17:19:43Z</time></trkpt><trkpt lat="43.30490823501361" lon="1.4392876043694152"><ele>296.33333333333337</ele><time>2026-04-30T17:19:44Z</time></trkpt><trkpt lat="43.30499530647218" lon="1.4394529673624883"><ele>296.0</ele><time>2026-04-30T17:19:45Z</time></trkpt><trkpt lat="43.3050757814284" lon="1.4396858660434513"><ele>294.5</ele><time>2026-04-30T17:19:46Z</time></trkpt><trkpt lat="43.30514494658451" lon="1.4398590821806423"><ele>293.0</ele><time>2026-04-30T17:19:47Z</time></trkpt><trkpt lat="43.305218853259106" lon="1.4399919206393132"><ele>291.5</ele><time>2026-04-30T17:19:48Z</time></trkpt><trkpt lat="43.305289587402946" lon="1.440129827113944"><ele>290.0</ele><time>2026-04-30T17:19:49Z</time></trkpt><trkpt lat="43.305333766414314" lon="1.4402511755546517"><ele>290.0</ele><time>2026-04-30T17:19:50Z</time></trkpt><trkpt lat="43.30538822320453" lon="1.4403851933694694"><ele>290.0</ele><time>2026-04-30T17:19:51Z</time></trkpt><trkpt lat="43.305428505877835" lon="1.4405351133451194"><ele>290.0</ele><time>2026-04-30T17:19:52Z</time></trkpt><trkpt lat="43.305488786154605" lon="1.4406580451007098"><ele>290.0</ele><time>2026-04-30T17:19:53Z</time></trkpt><trkpt lat="43.305564785854685" lon="1.4408016105644454"><ele>291.25</ele><time>2026-04-30T17:19:54Z</time></trkpt><trkpt lat="43.305657939425906" lon="1.4409457522175633"><ele>292.5</ele><time>2026-04-30T17:19:55Z</time></trkpt><trkpt lat="43.30576010108767" lon="1.4410692111604828"><ele>293.75</ele><time>2026-04-30T17:19:56Z</time></trkpt><trkpt lat="43.305837582852845" lon="1.441180951203269"><ele>295.0</ele><time>2026-04-30T17:19:57Z</time></trkpt><trkpt lat="43.30588697986804" lon="1.4412973463177978"><ele>294.0</ele><time>2026-04-30T17:19:58Z</time></trkpt><trkpt lat="43.305939654732335" lon="1.4414225611423988"><ele>293.0</ele><time>2026-04-30T17:19:59Z</time></trkpt><trkpt lat="43.306001196831716" lon="1.4415367981885248"><ele>292.0</ele><time>2026-04-30T17:20:00Z</time></trkpt><trkpt lat="43.306041580151174" lon="1.44162491732942"><ele>291.0</ele><time>2026-04-30T17:20:01Z</time></trkpt><trkpt lat="43.30608843865622" lon="1.44168355801691"><ele>290.0</ele><time>2026-04-30T17:20:02Z</time></trkpt><trkpt lat="43.30614370815838" lon="1.4417480994428142"><ele>289.0</ele><time>2026-04-30T17:20:03Z</time></trkpt><trkpt lat="43.30622267141732" lon="1.4418272625960964"><ele>289.0</ele><time>2026-04-30T17:20:03.999Z</time></trkpt><trkpt lat="43.30627684738216" lon="1.4418821687040528"><ele>289.0</ele><time>2026-04-30T17:20:04.999Z</time></trkpt><trkpt lat="43.306330282912874" lon="1.441954619301395"><ele>289.0</ele><time>2026-04-30T17:20:05.999Z</time></trkpt><trkpt lat="43.30640772923841" lon="1.4420770897982917"><ele>289.0</ele><time>2026-04-30T17:20:07.999Z</time></trkpt><trkpt lat="43.30646241625593" lon="1.442187025648953"><ele>289.0</ele><time>2026-04-30T17:20:09.999Z</time></trkpt><trkpt lat="43.30651276692418" lon="1.4423060678231663"><ele>289.4</ele><time>2026-04-30T17:20:11.999Z</time></trkpt><trkpt lat="43.306553088633954" lon="1.442454978541983"><ele>289.79999999999995</ele><time>2026-04-30T17:20:13.999Z</time></trkpt><trkpt lat="43.306593931258455" lon="1.4426085444463672"><ele>290.20000000000005</ele><time>2026-04-30T17:20:15.999Z</time></trkpt><trkpt lat="43.30665767812376" lon="1.4427194748382677"><ele>290.6</ele><time>2026-04-30T17:20:17.999Z</time></trkpt><trkpt lat="43.30669644662689" lon="1.4428165196304832"><ele>291.0</ele><time>2026-04-30T17:20:19.999Z</time></trkpt><trkpt lat="43.30677172108337" lon="1.4429391675450458"><ele>289.1666666666667</ele><time>2026-04-30T17:20:21.999Z</time></trkpt><trkpt lat="43.3068209432232" lon="1.4430008916772348"><ele>287.3333333333333</ele><time>2026-04-30T17:20:22.999Z</time></trkpt><trkpt lat="43.3069189227217" lon="1.4430849575594118"><ele>285.5</ele><time>2026-04-30T17:20:24.999Z</time></trkpt><trkpt lat="43.306976178691656" lon="1.4431536714873463"><ele>283.66666666666663</ele><time>2026-04-30T17:20:25.999Z</time></trkpt><trkpt lat="43.30703332730868" lon="1.443198287957087"><ele>281.8333333333333</ele><time>2026-04-30T17:20:26.999Z</time></trkpt><trkpt lat="43.307109255414" lon="1.4432560969601274"><ele>280.0</ele><time>2026-04-30T17:20:27.999Z</time></trkpt><trkpt lat="43.307180683537005" lon="1.443266558783884"><ele>280.0</ele><time>2026-04-30T17:20:28.999Z</time></trkpt><trkpt lat="43.30724262246169" lon="1.443285990029199"><ele>280.0</ele><time>2026-04-30T17:20:29.999Z</time></trkpt><trkpt lat="43.30731818599057" lon="1.443273020501514"><ele>280.0</ele><time>2026-04-30T17:20:31.999Z</time></trkpt><trkpt lat="43.30741341946039" lon="1.4432351825034344"><ele>280.0</ele><time>2026-04-30T17:20:33.999Z</time></trkpt><trkpt lat="43.30752688603707" lon="1.4432687146369774"><ele>280.0</ele><time>2026-04-30T17:20:35.999Z</time></trkpt><trkpt lat="43.307651437543576" lon="1.443335323565788"><ele>280.0</ele><time>2026-04-30T17:20:37.999Z</time></trkpt><trkpt lat="43.30777038431017" lon="1.4434151737676248"><ele>280.0</ele><time>2026-04-30T17:20:39.999Z</time></trkpt><trkpt lat="43.30784580627262" lon="1.443457613923177"><ele>280.0</ele><time>2026-04-30T17:20:40.999Z</time></trkpt><trkpt lat="43.3079405442707" lon="1.4434819287490144"><ele>280.0</ele><time>2026-04-30T17:20:41.999Z</time></trkpt><trkpt lat="43.30802139362477" lon="1.4435486800556652"><ele>280.0</ele><time>2026-04-30T17:20:42.999Z</time></trkpt><trkpt lat="43.30810252710804" lon="1.4436320498610358"><ele>280.0</ele><time>2026-04-30T17:20:43.999Z</time></trkpt><trkpt lat="43.30816434178741" lon="1.4436802925631946"><ele>280.0</ele><time>2026-04-30T17:20:44.999Z</time></trkpt><trkpt lat="43.308229114952226" lon="1.4437080549390195"><ele>280.0</ele><time>2026-04-30T17:20:45.999Z</time></trkpt><trkpt lat="43.30834161349092" lon="1.4437509030719644"><ele>280.0</ele><time>2026-04-30T17:20:47.999Z</time></trkpt><trkpt lat="43.30843156245501" lon="1.443859685791845"><ele>280.0</ele><time>2026-04-30T17:20:49.999Z</time></trkpt><trkpt lat="43.308520598574965" lon="1.443958760045296"><ele>278.4</ele><time>2026-04-30T17:20:51.999Z</time></trkpt><trkpt lat="43.30859330739441" lon="1.444076202904365"><ele>276.8</ele><time>2026-04-30T17:20:53.999Z</time></trkpt><trkpt lat="43.308657386397286" lon="1.4441903816176205"><ele>275.2</ele><time>2026-04-30T17:20:55.999Z</time></trkpt><trkpt lat="43.30870914965298" lon="1.4442912552304328"><ele>273.6</ele><time>2026-04-30T17:20:57.999Z</time></trkpt><trkpt lat="43.308763185237886" lon="1.4443680762208504"><ele>272.0</ele><time>2026-04-30T17:20:59.999Z</time></trkpt><trkpt lat="43.30882042210648" lon="1.4444415387977108"><ele>272.0</ele><time>2026-04-30T17:21:01.999Z</time></trkpt><trkpt lat="43.30886321325279" lon="1.4445251516947852"><ele>272.0</ele><time>2026-04-30T17:21:03.999Z</time></trkpt><trkpt lat="43.30892640985201" lon="1.444599975163761"><ele>272.0</ele><time>2026-04-30T17:21:05.999Z</time></trkpt><trkpt lat="43.30898813820644" lon="1.4446306100394868"><ele>272.0</ele><time>2026-04-30T17:21:08Z</time></trkpt><trkpt lat="43.309092899639445" lon="1.4446645957400253"><ele>272.0</ele><time>2026-04-30T17:21:11Z</time></trkpt><trkpt lat="43.30918077195602" lon="1.4446931368947196"><ele>272.0</ele><time>2026-04-30T17:21:13Z</time></trkpt><trkpt lat="43.30925195082643" lon="1.4447974569907283"><ele>269.6</ele><time>2026-04-30T17:21:15Z</time></trkpt><trkpt lat="43.30934372890403" lon="1.4448783269449121"><ele>267.2</ele><time>2026-04-30T17:21:17Z</time></trkpt><trkpt lat="43.30939187253668" lon="1.4449717558582624"><ele>264.8</ele><time>2026-04-30T17:21:19Z</time></trkpt><trkpt lat="43.30946039644186" lon="1.4450261878152009"><ele>262.4</ele><time>2026-04-30T17:21:21Z</time></trkpt><trkpt lat="43.30954989951488" lon="1.4450724974074012"><ele>260.0</ele><time>2026-04-30T17:21:23Z</time></trkpt><trkpt lat="43.309632515538816" lon="1.445121230996929"><ele>260.0</ele><time>2026-04-30T17:21:25Z</time></trkpt><trkpt lat="43.3096895603266" lon="1.4451689580321014"><ele>260.0</ele><time>2026-04-30T17:21:27Z</time></trkpt><trkpt lat="43.30979701236684" lon="1.4451844599842172"><ele>260.0</ele><time>2026-04-30T17:21:31Z</time></trkpt><trkpt lat="43.30986117324574" lon="1.445229289116956"><ele>260.0</ele><time>2026-04-30T17:21:34Z</time></trkpt><trkpt lat="43.30992432704462" lon="1.4453040605936078"><ele>260.0</ele><time>2026-04-30T17:21:37Z</time></trkpt><trkpt lat="43.31001809308254" lon="1.4453393173611682"><ele>260.0</ele><time>2026-04-30T17:21:40Z</time></trkpt><trkpt lat="43.31007451889904" lon="1.4453956163370163"><ele>255.4</ele><time>2026-04-30T17:21:42Z</time></trkpt><trkpt lat="43.31014625769709" lon="1.445490306398647"><ele>250.8</ele><time>2026-04-30T17:21:44Z</time></trkpt><trkpt lat="43.31024654255838" lon="1.4455839266495056"><ele>246.2</ele><time>2026-04-30T17:21:46Z</time></trkpt><trkpt lat="43.31031893643208" lon="1.4456586392206334"><ele>241.6</ele><time>2026-04-30T17:21:48Z</time></trkpt><trkpt lat="43.31039436681049" lon="1.445704366891846"><ele>237.0</ele><time>2026-04-30T17:21:50Z</time></trkpt><trkpt lat="43.31046776230699" lon="1.4457348359645044"><ele>237.0</ele><time>2026-04-30T17:21:52Z</time></trkpt><trkpt lat="43.310545314899514" lon="1.4457495810374967"><ele>237.0</ele><time>2026-04-30T17:21:54Z</time></trkpt><trkpt lat="43.310623511069686" lon="1.4457785250282222"><ele>237.0</ele><time>2026-04-30T17:21:56Z</time></trkpt><trkpt lat="43.31069835614216" lon="1.4458083060467508"><ele>237.0</ele><time>2026-04-30T17:21:59Z</time></trkpt><trkpt lat="43.31076978535477" lon="1.445888206618316"><ele>237.0</ele><time>2026-04-30T17:22:01Z</time></trkpt><trkpt lat="43.3108317293434" lon="1.4459578980741228"><ele>237.0</ele><time>2026-04-30T17:22:03Z</time></trkpt><trkpt lat="43.31090129833791" lon="1.4460575266306097"><ele>234.25</ele><time>2026-04-30T17:22:05Z</time></trkpt><trkpt lat="43.31098658126713" lon="1.4461811890068503"><ele>231.5</ele><time>2026-04-30T17:22:06.999Z</time></trkpt><trkpt lat="43.31104816330821" lon="1.446331722242544"><ele>228.75</ele><time>2026-04-30T17:22:08.999Z</time></trkpt><trkpt lat="43.31107871748014" lon="1.4464361378064439"><ele>226.0</ele><time>2026-04-30T17:22:09.999Z</time></trkpt><trkpt lat="43.31115935342215" lon="1.4465712302519498"><ele>225.60000000000002</ele><time>2026-04-30T17:22:11.999Z</time></trkpt><trkpt lat="43.31122509572403" lon="1.4466631086521329"><ele>225.20000000000002</ele><time>2026-04-30T17:22:12.999Z</time></trkpt><trkpt lat="43.311285557937495" lon="1.4467288962212699"><ele>224.79999999999998</ele><time>2026-04-30T17:22:13.999Z</time></trkpt><trkpt lat="43.31133073956887" lon="1.446819305148712"><ele>224.39999999999998</ele><time>2026-04-30T17:22:14.999Z</time></trkpt><trkpt lat="43.311405833476144" lon="1.4469352163368256"><ele>224.0</ele><time>2026-04-30T17:22:16.999Z</time></trkpt><trkpt lat="43.31146402328708" lon="1.4470256163912094"><ele>222.79999999999998</ele><time>2026-04-30T17:22:18.999Z</time></trkpt><trkpt lat="43.31154077760737" lon="1.4470682958827152"><ele>221.59999999999997</ele><time>2026-04-30T17:22:21.999Z</time></trkpt><trkpt lat="43.31159588118138" lon="1.4470089255062424"><ele>220.4</ele><time>2026-04-30T17:22:23.999Z</time></trkpt><trkpt lat="43.31167414775706" lon="1.4468680423223006"><ele>219.2</ele><time>2026-04-30T17:22:25.999Z</time></trkpt><trkpt lat="43.31171948682194" lon="1.4467594796966872"><ele>218.0</ele><time>2026-04-30T17:22:26.999Z</time></trkpt><trkpt lat="43.311740174707964" lon="1.446596258865017"><ele>218.0</ele><time>2026-04-30T17:22:28.999Z</time></trkpt><trkpt lat="43.31173237875232" lon="1.4464982848178054"><ele>218.0</ele><time>2026-04-30T17:22:29.999Z</time></trkpt><trkpt lat="43.311704875137025" lon="1.4463738603961938"><ele>218.0</ele><time>2026-04-30T17:22:30.999Z</time></trkpt><trkpt lat="43.311660731342286" lon="1.44621564602407"><ele>218.0</ele><time>2026-04-30T17:22:31.999Z</time></trkpt><trkpt lat="43.311626021095485" lon="1.4460529082371028"><ele>218.0</ele><time>2026-04-30T17:22:32.999Z</time></trkpt><trkpt lat="43.31161169202188" lon="1.4459063339285547"><ele>218.50000000000003</ele><time>2026-04-30T17:22:33.999Z</time></trkpt><trkpt lat="43.31159104053126" lon="1.4457806946118004"><ele>219.0</ele><time>2026-04-30T17:22:34.999Z</time></trkpt><trkpt lat="43.311571503153736" lon="1.4456746849966744"><ele>219.5</ele><time>2026-04-30T17:22:35.999Z</time></trkpt><trkpt lat="43.311558021199986" lon="1.4455686150742633"><ele>220.0</ele><time>2026-04-30T17:22:36.999Z</time></trkpt><trkpt lat="43.31153734031961" lon="1.445459474675053"><ele>220.50000000000003</ele><time>2026-04-30T17:22:37.999Z</time></trkpt><trkpt lat="43.31148636863085" lon="1.4453633120252016"><ele>221.0</ele><time>2026-04-30T17:22:38.999Z</time></trkpt><trkpt lat="43.31144835386278" lon="1.445284477680695"><ele>221.60000000000002</ele><time>2026-04-30T17:22:39.999Z</time></trkpt><trkpt lat="43.31138837901398" lon="1.4451999745238235"><ele>222.20000000000002</ele><time>2026-04-30T17:22:40.999Z</time></trkpt><trkpt lat="43.3113069740327" lon="1.445119638042419"><ele>222.79999999999998</ele><time>2026-04-30T17:22:42.999Z</time></trkpt><trkpt lat="43.31126680867434" lon="1.444949482212349"><ele>223.39999999999998</ele><time>2026-04-30T17:22:44.999Z</time></trkpt><trkpt lat="43.31124005244004" lon="1.4448510674563886"><ele>224.0</ele><time>2026-04-30T17:22:45.999Z</time></trkpt><trkpt lat="43.31120292982067" lon="1.444769968052582"><ele>224.00000000000003</ele><time>2026-04-30T17:22:46.999Z</time></trkpt><trkpt lat="43.31114967644748" lon="1.4447145981511402"><ele>224.0</ele><time>2026-04-30T17:22:47.999Z</time></trkpt><trkpt lat="43.31107783837373" lon="1.4445846667495827"><ele>224.0</ele><time>2026-04-30T17:22:49.999Z</time></trkpt><trkpt lat="43.31107101185909" lon="1.444487369758076"><ele>224.0</ele><time>2026-04-30T17:22:50.999Z</time></trkpt><trkpt lat="43.311071844263296" lon="1.4443860468723142"><ele>224.00000000000003</ele><time>2026-04-30T17:22:51.999Z</time></trkpt><trkpt lat="43.311053105470556" lon="1.4443034309236529"><ele>224.0</ele><time>2026-04-30T17:22:52.999Z</time></trkpt><trkpt lat="43.31102106810621" lon="1.4442168590725537"><ele>224.00000000000003</ele><time>2026-04-30T17:22:53.999Z</time></trkpt><trkpt lat="43.31092923644141" lon="1.4441253863957146"><ele>224.0</ele><time>2026-04-30T17:22:55.999Z</time></trkpt><trkpt lat="43.31086642452717" lon="1.444069962530612"><ele>224.0</ele><time>2026-04-30T17:22:57.999Z</time></trkpt><trkpt lat="43.31083777475999" lon="1.4439925480896465"><ele>224.0</ele><time>2026-04-30T17:23:00.999Z</time></trkpt><trkpt lat="43.31087679540681" lon="1.4439236452361512"><ele>224.00000000000003</ele><time>2026-04-30T17:23:02.999Z</time></trkpt><trkpt lat="43.31092228615855" lon="1.4438507373109104"><ele>224.0</ele><time>2026-04-30T17:23:07.999Z</time></trkpt><trkpt lat="43.31092664234181" lon="1.4437471445242394"><ele>226.39999999999998</ele><time>2026-04-30T17:23:13Z</time></trkpt><trkpt lat="43.31100357711512" lon="1.4437012992714855"><ele>228.79999999999998</ele><time>2026-04-30T17:23:18Z</time></trkpt><trkpt lat="43.31117644079171" lon="1.443699673193143"><ele>231.20000000000002</ele><time>2026-04-30T17:23:41Z</time></trkpt><trkpt lat="43.31121643108495" lon="1.4436214184736587"><ele>233.60000000000002</ele><time>2026-04-30T17:23:44Z</time></trkpt><trkpt lat="43.31115053213219" lon="1.4435857099641523"><ele>236.0</ele><time>2026-04-30T17:23:47Z</time></trkpt><trkpt lat="43.311070146643566" lon="1.4435906632943618"><ele>236.0</ele><time>2026-04-30T17:23:50Z</time></trkpt><trkpt lat="43.31100768889183" lon="1.4435264325353063"><ele>236.00000000000003</ele><time>2026-04-30T17:23:52Z</time></trkpt><trkpt lat="43.31094326776564" lon="1.4434543252094927"><ele>236.00000000000003</ele><time>2026-04-30T17:23:54Z</time></trkpt><trkpt lat="43.310861492820585" lon="1.443389587069354"><ele>236.0</ele><time>2026-04-30T17:23:56Z</time></trkpt><trkpt lat="43.31076101187969" lon="1.443373439096353"><ele>236.0</ele><time>2026-04-30T17:23:58Z</time></trkpt><trkpt lat="43.31064957906231" lon="1.4433406962199833"><ele>236.83333333333334</ele><time>2026-04-30T17:24:00Z</time></trkpt><trkpt lat="43.31054559392551" lon="1.4432673525377595"><ele>237.66666666666669</ele><time>2026-04-30T17:24:02Z</time></trkpt><trkpt lat="43.31048319963819" lon="1.4431714641185065"><ele>238.5</ele><time>2026-04-30T17:24:03Z</time></trkpt><trkpt lat="43.31041429211355" lon="1.4431154724379336"><ele>239.33333333333331</ele><time>2026-04-30T17:24:04Z</time></trkpt><trkpt lat="43.31036566451486" lon="1.443029779481877"><ele>240.16666666666666</ele><time>2026-04-30T17:24:05Z</time></trkpt><trkpt lat="43.31031874695286" lon="1.4429467677905148"><ele>241.0</ele><time>2026-04-30T17:24:06Z</time></trkpt><trkpt lat="43.31026677490599" lon="1.4428663908175983"><ele>240.99999999999997</ele><time>2026-04-30T17:24:07Z</time></trkpt><trkpt lat="43.310199558544774" lon="1.4427928662710603"><ele>241.0</ele><time>2026-04-30T17:24:08Z</time></trkpt><trkpt lat="43.31014620707049" lon="1.442654456377441"><ele>241.0</ele><time>2026-04-30T17:24:09Z</time></trkpt><trkpt lat="43.31011023659366" lon="1.442575673792916"><ele>241.0</ele><time>2026-04-30T17:24:10Z</time></trkpt><trkpt lat="43.31007956968073" lon="1.4424932592543886"><ele>240.99999999999997</ele><time>2026-04-30T17:24:11Z</time></trkpt><trkpt lat="43.31003096346013" lon="1.4424342915224044"><ele>241.0</ele><time>2026-04-30T17:24:12Z</time></trkpt><trkpt lat="43.30994734715643" lon="1.4423366144929073"><ele>241.0</ele><time>2026-04-30T17:24:14Z</time></trkpt><trkpt lat="43.30987167540794" lon="1.4422334400357146"><ele>241.00000000000003</ele><time>2026-04-30T17:24:16Z</time></trkpt><trkpt lat="43.30978884611493" lon="1.4421754374574751"><ele>241.00000000000003</ele><time>2026-04-30T17:24:18Z</time></trkpt><trkpt lat="43.309695872495276" lon="1.4421010170413522"><ele>241.0</ele><time>2026-04-30T17:24:20Z</time></trkpt><trkpt lat="43.309627981494096" lon="1.4419816888793007"><ele>241.0</ele><time>2026-04-30T17:24:21.999Z</time></trkpt><trkpt lat="43.309632421050004" lon="1.4418209568778044"><ele>241.0</ele><time>2026-04-30T17:24:23.999Z</time></trkpt><trkpt lat="43.30964938497509" lon="1.4417370591847785"><ele>241.00000000000003</ele><time>2026-04-30T17:24:24.999Z</time></trkpt><trkpt lat="43.30956653629115" lon="1.4416525751391671"><ele>241.00000000000003</ele><time>2026-04-30T17:24:27.999Z</time></trkpt><trkpt lat="43.30950019644691" lon="1.4415803722714855"><ele>241.0</ele><time>2026-04-30T17:24:28.999Z</time></trkpt><trkpt lat="43.309440283890986" lon="1.4414407483106297"><ele>241.0</ele><time>2026-04-30T17:24:29.999Z</time></trkpt><trkpt lat="43.30939741302607" lon="1.4413436716367085"><ele>241.66666666666666</ele><time>2026-04-30T17:24:30.999Z</time></trkpt><trkpt lat="43.309361401219206" lon="1.441247152654882"><ele>242.33333333333331</ele><time>2026-04-30T17:24:31.999Z</time></trkpt><trkpt lat="43.30939339221426" lon="1.4410947588202425"><ele>243.0</ele><time>2026-04-30T17:24:33.999Z</time></trkpt><trkpt lat="43.30946458050475" lon="1.4409985865270971"><ele>243.66666666666669</ele><time>2026-04-30T17:24:34.999Z</time></trkpt><trkpt lat="43.30951242478948" lon="1.440934462391419"><ele>244.33333333333334</ele><time>2026-04-30T17:24:35.999Z</time></trkpt><trkpt lat="43.30956523943763" lon="1.4408576365665067"><ele>245.0</ele><time>2026-04-30T17:24:36.999Z</time></trkpt><trkpt lat="43.309599649202084" lon="1.4407836283144286"><ele>245.0</ele><time>2026-04-30T17:24:37.999Z</time></trkpt><trkpt lat="43.30966705410965" lon="1.4407037208256424"><ele>245.0</ele><time>2026-04-30T17:24:39.999Z</time></trkpt><trkpt lat="43.30978663808952" lon="1.4406159474771107"><ele>245.0</ele><time>2026-04-30T17:24:41.999Z</time></trkpt><trkpt lat="43.30984744792845" lon="1.4405336202396002"><ele>245.0</ele><time>2026-04-30T17:24:42.999Z</time></trkpt><trkpt lat="43.30991729567164" lon="1.4404082516229655"><ele>245.0</ele><time>2026-04-30T17:24:44.999Z</time></trkpt><trkpt lat="43.30994285876574" lon="1.4402500659979343"><ele>250.0</ele><time>2026-04-30T17:24:46.999Z</time></trkpt><trkpt lat="43.309994384395864" lon="1.4401650341100338"><ele>255.0</ele><time>2026-04-30T17:24:48.999Z</time></trkpt><trkpt lat="43.31005797069334" lon="1.4400800389768675"><ele>260.0</ele><time>2026-04-30T17:24:51.999Z</time></trkpt><trkpt lat="43.310119374452725" lon="1.439951872297986"><ele>265.0</ele><time>2026-04-30T17:24:53.999Z</time></trkpt><trkpt lat="43.31022256174191" lon="1.4398503011839472"><ele>270.0</ele><time>2026-04-30T17:24:55.999Z</time></trkpt><trkpt lat="43.310262619366426" lon="1.439720147691492"><ele>272.0</ele><time>2026-04-30T17:24:57.999Z</time></trkpt><trkpt lat="43.31028968669736" lon="1.4396165371538399"><ele>274.0</ele><time>2026-04-30T17:24:59.999Z</time></trkpt><trkpt lat="43.31034898300755" lon="1.43953885332975"><ele>276.0</ele><time>2026-04-30T17:25:00.999Z</time></trkpt><trkpt lat="43.31039444706756" lon="1.439470935483113"><ele>278.0</ele><time>2026-04-30T17:25:02.999Z</time></trkpt><trkpt lat="43.31034926216844" lon="1.4393261311956074"><ele>280.0</ele><time>2026-04-30T17:25:04.999Z</time></trkpt><trkpt lat="43.31025135235928" lon="1.439171778469657"><ele>280.0</ele><time>2026-04-30T17:25:05.999Z</time></trkpt><trkpt lat="43.310167946585274" lon="1.439045995880793"><ele>280.0</ele><time>2026-04-30T17:25:06.999Z</time></trkpt><trkpt lat="43.310103637015416" lon="1.438941134339461"><ele>280.0</ele><time>2026-04-30T17:25:07.999Z</time></trkpt><trkpt lat="43.31006195037582" lon="1.4388628803525083"><ele>280.0</ele><time>2026-04-30T17:25:08.999Z</time></trkpt><trkpt lat="43.31000669141797" lon="1.4387040878969617"><ele>280.0</ele><time>2026-04-30T17:25:10.999Z</time></trkpt><trkpt lat="43.3099740124459" lon="1.4385830981128611"><ele>280.8</ele><time>2026-04-30T17:25:11.999Z</time></trkpt><trkpt lat="43.309935614732176" lon="1.438457224744347"><ele>281.6</ele><time>2026-04-30T17:25:12.999Z</time></trkpt><trkpt lat="43.30985178335511" lon="1.438365487677324"><ele>282.4</ele><time>2026-04-30T17:25:13.999Z</time></trkpt><trkpt lat="43.30980816024567" lon="1.4382859895468267"><ele>283.2</ele><time>2026-04-30T17:25:14.999Z</time></trkpt><trkpt lat="43.30977499347052" lon="1.4381027285151942"><ele>284.0</ele><time>2026-04-30T17:25:16.999Z</time></trkpt><trkpt lat="43.30980050952227" lon="1.4379995684134066"><ele>284.83333333333337</ele><time>2026-04-30T17:25:17.999Z</time></trkpt><trkpt lat="43.3098114856032" lon="1.4378899644971361"><ele>285.6666666666667</ele><time>2026-04-30T17:25:19Z</time></trkpt><trkpt lat="43.30982607706406" lon="1.4377649509809463"><ele>286.5</ele><time>2026-04-30T17:25:20Z</time></trkpt><trkpt lat="43.309832391864845" lon="1.4376565973516533"><ele>287.3333333333333</ele><time>2026-04-30T17:25:21Z</time></trkpt><trkpt lat="43.30979178077641" lon="1.437553689811784"><ele>288.16666666666663</ele><time>2026-04-30T17:25:23Z</time></trkpt><trkpt lat="43.30972808668481" lon="1.4374720066439353"><ele>289.0</ele><time>2026-04-30T17:25:25Z</time></trkpt><trkpt lat="43.309731232018706" lon="1.4373713700073043"><ele>289.0</ele><time>2026-04-30T17:25:27Z</time></trkpt><trkpt lat="43.30976916391272" lon="1.437238927690689"><ele>289.0</ele><time>2026-04-30T17:25:29Z</time></trkpt><trkpt lat="43.309836830084166" lon="1.4371166811244438"><ele>289.0</ele><time>2026-04-30T17:25:31Z</time></trkpt><trkpt lat="43.30991395731269" lon="1.4371061507173946"><ele>289.0</ele><time>2026-04-30T17:25:32Z</time></trkpt><trkpt lat="43.310009564303705" lon="1.437053409949845"><ele>289.0</ele><time>2026-04-30T17:25:34Z</time></trkpt><trkpt lat="43.31008365638327" lon="1.437009344036821"><ele>289.8</ele><time>2026-04-30T17:25:37Z</time></trkpt><trkpt lat="43.310195653454834" lon="1.4369816012634846"><ele>290.59999999999997</ele><time>2026-04-30T17:25:40Z</time></trkpt><trkpt lat="43.310270249018096" lon="1.4369207746470147"><ele>291.4</ele><time>2026-04-30T17:25:42Z</time></trkpt><trkpt lat="43.31040782051046" lon="1.4368903222368359"><ele>292.2</ele><time>2026-04-30T17:25:44Z</time></trkpt><trkpt lat="43.31045411614969" lon="1.4367740667560271"><ele>293.0</ele><time>2026-04-30T17:25:47Z</time></trkpt><trkpt lat="43.310509101095946" lon="1.436714039893804"><ele>293.0</ele><time>2026-04-30T17:25:49Z</time></trkpt><trkpt lat="43.310555745057336" lon="1.436636007172792"><ele>293.0</ele><time>2026-04-30T17:25:50Z</time></trkpt><trkpt lat="43.31056686792345" lon="1.43653409738168"><ele>293.0</ele><time>2026-04-30T17:25:52Z</time></trkpt><trkpt lat="43.310619085189025" lon="1.4364458517009937"><ele>293.0</ele><time>2026-04-30T17:25:54Z</time></trkpt><trkpt lat="43.31066873350554" lon="1.4363669615575216"><ele>293.0</ele><time>2026-04-30T17:25:57Z</time></trkpt><trkpt lat="43.31074141907356" lon="1.4362893274207227"><ele>293.0</ele><time>2026-04-30T17:26:11Z</time></trkpt><trkpt lat="43.310831442885146" lon="1.436306802576924"><ele>291.4</ele><time>2026-04-30T17:26:13Z</time></trkpt><trkpt lat="43.31093330739574" lon="1.4362367455612437"><ele>289.8</ele><time>2026-04-30T17:26:15Z</time></trkpt><trkpt lat="43.31101461607952" lon="1.4361025961805192"><ele>288.2</ele><time>2026-04-30T17:26:17Z</time></trkpt><trkpt lat="43.311068192049284" lon="1.436014149203948"><ele>286.6</ele><time>2026-04-30T17:26:18Z</time></trkpt><trkpt lat="43.31113589848595" lon="1.4359371597761386"><ele>285.0</ele><time>2026-04-30T17:26:19Z</time></trkpt><trkpt lat="43.3112014061926" lon="1.435866278892829"><ele>285.0</ele><time>2026-04-30T17:26:20Z</time></trkpt><trkpt lat="43.311268482840084" lon="1.435800741319927"><ele>285.0</ele><time>2026-04-30T17:26:20.999Z</time></trkpt><trkpt lat="43.31134326475786" lon="1.4357447937385848"><ele>285.0</ele><time>2026-04-30T17:26:21.999Z</time></trkpt><trkpt lat="43.311423843661345" lon="1.4356998183417973"><ele>285.0</ele><time>2026-04-30T17:26:22.999Z</time></trkpt><trkpt lat="43.31151743051908" lon="1.4356679363369504"><ele>285.0</ele><time>2026-04-30T17:26:23.999Z</time></trkpt><trkpt lat="43.31162912516698" lon="1.4356519471394047"><ele>284.0</ele><time>2026-04-30T17:26:24.999Z</time></trkpt><trkpt lat="43.31174777877836" lon="1.4356436157973766"><ele>283.0</ele><time>2026-04-30T17:26:25.999Z</time></trkpt><trkpt lat="43.31186592919715" lon="1.4356144508059216"><ele>282.0</ele><time>2026-04-30T17:26:26.999Z</time></trkpt><trkpt lat="43.31199374299776" lon="1.4355924914671336"><ele>281.0</ele><time>2026-04-30T17:26:27.999Z</time></trkpt><trkpt lat="43.312112743385356" lon="1.4355671288955614"><ele>281.0</ele><time>2026-04-30T17:26:28.999Z</time></trkpt><trkpt lat="43.31221551449234" lon="1.4355377024170541"><ele>281.0</ele><time>2026-04-30T17:26:29.999Z</time></trkpt><trkpt lat="43.3123187002873" lon="1.4355038741665234"><ele>281.0</ele><time>2026-04-30T17:26:30.999Z</time></trkpt><trkpt lat="43.31242616353145" lon="1.4354599796981091"><ele>281.0</ele><time>2026-04-30T17:26:31.999Z</time></trkpt><trkpt lat="43.31252288729004" lon="1.4354105762962046"><ele>281.0</ele><time>2026-04-30T17:26:32.999Z</time></trkpt><trkpt lat="43.312619238523666" lon="1.435350880878079"><ele>281.33333333333337</ele><time>2026-04-30T17:26:33.999Z</time></trkpt><trkpt lat="43.31269973985997" lon="1.4352946849847994"><ele>281.6666666666667</ele><time>2026-04-30T17:26:34.999Z</time></trkpt><trkpt lat="43.31276106963822" lon="1.4352308600740196"><ele>282.0</ele><time>2026-04-30T17:26:35.999Z</time></trkpt><trkpt lat="43.31283055255967" lon="1.435163596728382"><ele>282.3333333333333</ele><time>2026-04-30T17:26:36.999Z</time></trkpt><trkpt lat="43.31290681676725" lon="1.4350928147259179"><ele>282.66666666666663</ele><time>2026-04-30T17:26:37.999Z</time></trkpt><trkpt lat="43.312972954573375" lon="1.4350313179211578"><ele>283.0</ele><time>2026-04-30T17:26:38.999Z</time></trkpt><trkpt lat="43.313059924413544" lon="1.434952475077023"><ele>282.16666666666663</ele><time>2026-04-30T17:26:40.999Z</time></trkpt><trkpt lat="43.31312932253506" lon="1.4348921425798336"><ele>281.3333333333333</ele><time>2026-04-30T17:26:42.999Z</time></trkpt><trkpt lat="43.31319426899064" lon="1.4348867932506102"><ele>280.5</ele><time>2026-04-30T17:26:43.999Z</time></trkpt><trkpt lat="43.313273814623315" lon="1.4349801735883259"><ele>279.6666666666667</ele><time>2026-04-30T17:26:44.999Z</time></trkpt><trkpt lat="43.313361543332306" lon="1.4350047442960472"><ele>278.83333333333337</ele><time>2026-04-30T17:26:45.999Z</time></trkpt><trkpt lat="43.31346612084352" lon="1.435036073440115"><ele>278.0</ele><time>2026-04-30T17:26:46.999Z</time></trkpt><trkpt lat="43.313596463254356" lon="1.4350771917584102"><ele>278.0</ele><time>2026-04-30T17:26:47.999Z</time></trkpt><trkpt lat="43.313712812717064" lon="1.4351190840203376"><ele>278.0</ele><time>2026-04-30T17:26:48.999Z</time></trkpt><trkpt lat="43.3137969307716" lon="1.4351528879446838"><ele>278.0</ele><time>2026-04-30T17:26:49.999Z</time></trkpt><trkpt lat="43.31389958091979" lon="1.4351949480270219"><ele>278.0</ele><time>2026-04-30T17:26:51.999Z</time></trkpt><trkpt lat="43.31396786302796" lon="1.435217946997176"><ele>278.0</ele><time>2026-04-30T17:26:52.999Z</time></trkpt><trkpt lat="43.31407141036464" lon="1.4352504956699923"><ele>275.0</ele><time>2026-04-30T17:26:53.999Z</time></trkpt><trkpt lat="43.31414841291838" lon="1.4352608507295301"><ele>272.0</ele><time>2026-04-30T17:26:54.999Z</time></trkpt><trkpt lat="43.3142808660295" lon="1.43469115221178"><ele>272.6</ele><time>2026-04-30T17:26:55.999Z</time></trkpt><trkpt lat="43.314350590038366" lon="1.4345724406395084"><ele>273.2</ele><time>2026-04-30T17:26:56.999Z</time></trkpt><trkpt lat="43.314410173039484" lon="1.434461686452603"><ele>273.8</ele><time>2026-04-30T17:26:57.999Z</time></trkpt><trkpt lat="43.31444783329011" lon="1.43434533266078"><ele>274.4</ele><time>2026-04-30T17:26:58.999Z</time></trkpt><trkpt lat="43.314502559618525" lon="1.4342091480009136"><ele>275.0</ele><time>2026-04-30T17:26:59.999Z</time></trkpt><trkpt lat="43.31457374069196" lon="1.4340682385835168"><ele>275.0</ele><time>2026-04-30T17:27:00.999Z</time></trkpt><trkpt lat="43.314678378012694" lon="1.4339240269725049"><ele>275.0</ele><time>2026-04-30T17:27:01.999Z</time></trkpt><trkpt lat="43.314786208794594" lon="1.4337945225111166"><ele>275.0</ele><time>2026-04-30T17:27:02.999Z</time></trkpt><trkpt lat="43.31486299212331" lon="1.4336952430662024"><ele>275.0</ele><time>2026-04-30T17:27:03.999Z</time></trkpt><trkpt lat="43.314932500249306" lon="1.4335996105916144"><ele>274.1666666666667</ele><time>2026-04-30T17:27:04.999Z</time></trkpt><trkpt lat="43.31499347753828" lon="1.4335113700146853"><ele>273.33333333333337</ele><time>2026-04-30T17:27:05.999Z</time></trkpt><trkpt lat="43.31509181783051" lon="1.433412079593256"><ele>272.5</ele><time>2026-04-30T17:27:06.999Z</time></trkpt><trkpt lat="43.3151512061067" lon="1.4333815557872442"><ele>271.6666666666667</ele><time>2026-04-30T17:27:07.999Z</time></trkpt><trkpt lat="43.315230313594235" lon="1.4333422454847038"><ele>270.8333333333333</ele><time>2026-04-30T17:27:08.999Z</time></trkpt><trkpt lat="43.31531118584898" lon="1.4333274061635877"><ele>270.0</ele><time>2026-04-30T17:27:09.999Z</time></trkpt><trkpt lat="43.31539998012433" lon="1.4333419784295873"><ele>270.0</ele><time>2026-04-30T17:27:10.999Z</time></trkpt><trkpt lat="43.31547157129801" lon="1.4333854030368223"><ele>270.0</ele><time>2026-04-30T17:27:11.999Z</time></trkpt><trkpt lat="43.315532036029346" lon="1.433414656518314"><ele>270.0</ele><time>2026-04-30T17:27:12.999Z</time></trkpt><trkpt lat="43.315633802976485" lon="1.4334053188427458"><ele>270.0</ele><time>2026-04-30T17:27:14.999Z</time></trkpt><trkpt lat="43.31570371100523" lon="1.4333115489922352"><ele>270.0</ele><time>2026-04-30T17:27:16.999Z</time></trkpt><trkpt lat="43.31574079132089" lon="1.4332371413262674"><ele>270.0</ele><time>2026-04-30T17:27:17.999Z</time></trkpt><trkpt lat="43.31578497767559" lon="1.4330797408374356"><ele>267.0</ele><time>2026-04-30T17:27:19.999Z</time></trkpt><trkpt lat="43.31582723387703" lon="1.432938944277951"><ele>264.0</ele><time>2026-04-30T17:27:21.999Z</time></trkpt><trkpt lat="43.315894235662746" lon="1.4328135315894424"><ele>261.0</ele><time>2026-04-30T17:27:23.999Z</time></trkpt><trkpt lat="43.31595240957068" lon="1.4326708190885982"><ele>258.0</ele><time>2026-04-30T17:27:26Z</time></trkpt><trkpt lat="43.316014567942254" lon="1.4325940872275318"><ele>255.0</ele><time>2026-04-30T17:27:27Z</time></trkpt><trkpt lat="43.316091984895934" lon="1.4324915853474076"><ele>255.0</ele><time>2026-04-30T17:27:29Z</time></trkpt><trkpt lat="43.31615705895287" lon="1.4324732467807328"><ele>255.0</ele><time>2026-04-30T17:27:30Z</time></trkpt><trkpt lat="43.31624409707767" lon="1.4324283184944866"><ele>255.0</ele><time>2026-04-30T17:27:32Z</time></trkpt><trkpt lat="43.31631468369853" lon="1.4323662726994313"><ele>255.0</ele><time>2026-04-30T17:27:33Z</time></trkpt><trkpt lat="43.31644843289513" lon="1.432330986329804"><ele>255.0</ele><time>2026-04-30T17:27:35Z</time></trkpt><trkpt lat="43.316515992762454" lon="1.4323425100852136"><ele>255.0</ele><time>2026-04-30T17:27:36Z</time></trkpt><trkpt lat="43.316584450340976" lon="1.4323935125166762"><ele>254.0</ele><time>2026-04-30T17:27:37Z</time></trkpt><trkpt lat="43.31668386807704" lon="1.4324724204545793"><ele>253.0</ele><time>2026-04-30T17:27:39Z</time></trkpt><trkpt lat="43.31678248532461" lon="1.4325514084425706"><ele>252.0</ele><time>2026-04-30T17:27:41Z</time></trkpt><trkpt lat="43.3169008564641" lon="1.4325778212726643"><ele>251.0</ele><time>2026-04-30T17:27:43Z</time></trkpt><trkpt lat="43.317011235533755" lon="1.4326124684981025"><ele>251.00000000000003</ele><time>2026-04-30T17:27:45Z</time></trkpt><trkpt lat="43.31707396161137" lon="1.4326269360330919"><ele>251.0</ele><time>2026-04-30T17:27:46Z</time></trkpt><trkpt lat="43.31713712615605" lon="1.4326630769664137"><ele>251.0</ele><time>2026-04-30T17:27:47Z</time></trkpt><trkpt lat="43.31720157511697" lon="1.4326956675874631"><ele>251.0</ele><time>2026-04-30T17:27:48Z</time></trkpt><trkpt lat="43.31731966108995" lon="1.4327614928885462"><ele>251.00000000000003</ele><time>2026-04-30T17:27:50Z</time></trkpt><trkpt lat="43.31743076783778" lon="1.4328039135013972"><ele>251.0</ele><time>2026-04-30T17:27:52Z</time></trkpt><trkpt lat="43.31753561744533" lon="1.4328869616770317"><ele>250.60000000000002</ele><time>2026-04-30T17:27:54Z</time></trkpt><trkpt lat="43.317629732606946" lon="1.4329879674399024"><ele>250.20000000000002</ele><time>2026-04-30T17:27:56Z</time></trkpt><trkpt lat="43.31767684440976" lon="1.4330516431811076"><ele>249.79999999999998</ele><time>2026-04-30T17:27:57Z</time></trkpt><trkpt lat="43.31776136705578" lon="1.433110379419661"><ele>249.39999999999998</ele><time>2026-04-30T17:27:59Z</time></trkpt><trkpt lat="43.317865109965794" lon="1.4331873230475143"><ele>249.0</ele><time>2026-04-30T17:28:01Z</time></trkpt><trkpt lat="43.317922942658306" lon="1.4332227553590007"><ele>249.0</ele><time>2026-04-30T17:28:02Z</time></trkpt><trkpt lat="43.31797514260949" lon="1.4331629521818083"><ele>249.0</ele><time>2026-04-30T17:28:04Z</time></trkpt><trkpt lat="43.31791354059107" lon="1.4330707536925742"><ele>249.0</ele><time>2026-04-30T17:28:07Z</time></trkpt><trkpt lat="43.317874263325734" lon="1.4329610197480183"><ele>249.0</ele><time>2026-04-30T17:28:10Z</time></trkpt><trkpt lat="43.317893695600816" lon="1.4328468674059673"><ele>249.0</ele><time>2026-04-30T17:28:13Z</time></trkpt><trkpt lat="43.31796775553794" lon="1.4328119794221976"><ele>249.0</ele><time>2026-04-30T17:28:14Z</time></trkpt><trkpt lat="43.31803047599602" lon="1.4328025007594907"><ele>243.83333333333334</ele><time>2026-04-30T17:28:15Z</time></trkpt><trkpt lat="43.31810831725572" lon="1.4328101744513633"><ele>238.66666666666669</ele><time>2026-04-30T17:28:16Z</time></trkpt><trkpt lat="43.31819917310224" lon="1.432827814772564"><ele>233.5</ele><time>2026-04-30T17:28:17Z</time></trkpt><trkpt lat="43.318264266142556" lon="1.432843764136035"><ele>228.33333333333334</ele><time>2026-04-30T17:28:18Z</time></trkpt><trkpt lat="43.31833684486512" lon="1.432823861418223"><ele>223.16666666666669</ele><time>2026-04-30T17:28:19Z</time></trkpt><trkpt lat="43.31842852054655" lon="1.4327804799060384"><ele>218.0</ele><time>2026-04-30T17:28:20Z</time></trkpt><trkpt lat="43.31850624552368" lon="1.4328182757357566"><ele>218.0</ele><time>2026-04-30T17:28:21Z</time></trkpt><trkpt lat="43.31856932107101" lon="1.4328498183827405"><ele>218.0</ele><time>2026-04-30T17:28:22Z</time></trkpt><trkpt lat="43.31862610718474" lon="1.4328909037691069"><ele>218.0</ele><time>2026-04-30T17:28:23Z</time></trkpt><trkpt lat="43.31875444045401" lon="1.432854016908705"><ele>218.0</ele><time>2026-04-30T17:28:25Z</time></trkpt><trkpt lat="43.31882388765368" lon="1.4328093780786044"><ele>218.0</ele><time>2026-04-30T17:28:26Z</time></trkpt><trkpt lat="43.31891377639234" lon="1.432698494087352"><ele>217.2</ele><time>2026-04-30T17:28:27Z</time></trkpt><trkpt lat="43.31901116478604" lon="1.432583964433053"><ele>216.4</ele><time>2026-04-30T17:28:28Z</time></trkpt><trkpt lat="43.319086687608944" lon="1.4325150362917227"><ele>215.59999999999997</ele><time>2026-04-30T17:28:29Z</time></trkpt><trkpt lat="43.319204044661795" lon="1.4324750838863352"><ele>214.79999999999998</ele><time>2026-04-30T17:28:31Z</time></trkpt><trkpt lat="43.31927390532597" lon="1.43252191203602"><ele>214.0</ele><time>2026-04-30T17:28:31.999Z</time></trkpt><trkpt lat="43.31935363519626" lon="1.4325857270392226"><ele>213.99999999999997</ele><time>2026-04-30T17:28:32.999Z</time></trkpt><trkpt lat="43.319432247386196" lon="1.4326583447878571"><ele>214.0</ele><time>2026-04-30T17:28:33.999Z</time></trkpt><trkpt lat="43.31948995105816" lon="1.4327508131895643"><ele>214.0</ele><time>2026-04-30T17:28:34.999Z</time></trkpt><trkpt lat="43.31953224172646" lon="1.4328233789552254"><ele>214.0</ele><time>2026-04-30T17:28:35.999Z</time></trkpt><trkpt lat="43.31958624069793" lon="1.4329037242499776"><ele>213.99999999999997</ele><time>2026-04-30T17:28:36.999Z</time></trkpt><trkpt lat="43.31963986439746" lon="1.4329878858178031"><ele>214.0</ele><time>2026-04-30T17:28:37.999Z</time></trkpt><trkpt lat="43.319693736705425" lon="1.4330687547614767"><ele>214.83333333333331</ele><time>2026-04-30T17:28:38.999Z</time></trkpt><trkpt lat="43.319752538173624" lon="1.4331490926680992"><ele>215.66666666666666</ele><time>2026-04-30T17:28:39.999Z</time></trkpt><trkpt lat="43.319802594163875" lon="1.4332350025489655"><ele>216.5</ele><time>2026-04-30T17:28:40.999Z</time></trkpt><trkpt lat="43.31985760658792" lon="1.433279777465494"><ele>217.33333333333331</ele><time>2026-04-30T17:28:41.999Z</time></trkpt><trkpt lat="43.319945443688226" lon="1.4333169223314084"><ele>218.16666666666666</ele><time>2026-04-30T17:28:43.999Z</time></trkpt><trkpt lat="43.32005597293379" lon="1.4333446592547316"><ele>219.0</ele><time>2026-04-30T17:28:45.999Z</time></trkpt><trkpt lat="43.32013973420544" lon="1.4333609663927604"><ele>219.0</ele><time>2026-04-30T17:28:46.999Z</time></trkpt><trkpt lat="43.32027211102705" lon="1.433360073005585"><ele>218.99999999999997</ele><time>2026-04-30T17:28:48.999Z</time></trkpt><trkpt lat="43.32034619239817" lon="1.4333480027751138"><ele>218.99999999999997</ele><time>2026-04-30T17:28:49.999Z</time></trkpt><trkpt lat="43.32045068561714" lon="1.4333677122384827"><ele>219.0</ele><time>2026-04-30T17:28:50.999Z</time></trkpt><trkpt lat="43.320551117467815" lon="1.4334274940454335"><ele>219.0</ele><time>2026-04-30T17:28:51.999Z</time></trkpt><trkpt lat="43.32065942996765" lon="1.4334828405793851"><ele>220.2</ele><time>2026-04-30T17:28:52.999Z</time></trkpt><trkpt lat="43.32072097631633" lon="1.4335943585528554"><ele>221.39999999999998</ele><time>2026-04-30T17:28:53.999Z</time></trkpt><trkpt lat="43.32079889095873" lon="1.433701039647709"><ele>222.6</ele><time>2026-04-30T17:28:54.999Z</time></trkpt><trkpt lat="43.320877891630346" lon="1.433737487219987"><ele>223.8</ele><time>2026-04-30T17:28:55.999Z</time></trkpt><trkpt lat="43.32097028661671" lon="1.4336874965570985"><ele>225.0</ele><time>2026-04-30T17:28:56.999Z</time></trkpt><trkpt lat="43.321073302345035" lon="1.4336846177348102"><ele>225.0</ele><time>2026-04-30T17:28:57.999Z</time></trkpt><trkpt lat="43.32119579148042" lon="1.4336226411923843"><ele>225.0</ele><time>2026-04-30T17:28:58.999Z</time></trkpt><trkpt lat="43.32130346783614" lon="1.4335632634186308"><ele>225.0</ele><time>2026-04-30T17:28:59.999Z</time></trkpt><trkpt lat="43.321418052107106" lon="1.433513654239039"><ele>225.0</ele><time>2026-04-30T17:29:00.999Z</time></trkpt><trkpt lat="43.32157850451562" lon="1.4334310684481701"><ele>225.8</ele><time>2026-04-30T17:29:01.999Z</time></trkpt><trkpt lat="43.32163544928551" lon="1.433358523506581"><ele>226.6</ele><time>2026-04-30T17:29:02.999Z</time></trkpt><trkpt lat="43.321730496119955" lon="1.433338764247749"><ele>227.39999999999998</ele><time>2026-04-30T17:29:03.999Z</time></trkpt><trkpt lat="43.32189046673207" lon="1.4333296599568168"><ele>228.2</ele><time>2026-04-30T17:29:05.999Z</time></trkpt><trkpt lat="43.32195491510932" lon="1.433265600159799"><ele>229.0</ele><time>2026-04-30T17:29:06.999Z</time></trkpt><trkpt lat="43.32206930471327" lon="1.433155423287615"><ele>228.99999999999997</ele><time>2026-04-30T17:29:08.999Z</time></trkpt><trkpt lat="43.322139098518555" lon="1.4330881289000663"><ele>229.0</ele><time>2026-04-30T17:29:09.999Z</time></trkpt><trkpt lat="43.32220898196468" lon="1.4330156215763785"><ele>229.0</ele><time>2026-04-30T17:29:10.999Z</time></trkpt><trkpt lat="43.32227463075323" lon="1.4329284815472654"><ele>229.0</ele><time>2026-04-30T17:29:11.999Z</time></trkpt><trkpt lat="43.322324954604085" lon="1.4328502316940215"><ele>228.99999999999997</ele><time>2026-04-30T17:29:12.999Z</time></trkpt><trkpt lat="43.32236622428508" lon="1.4327755728927496"><ele>229.0</ele><time>2026-04-30T17:29:13.999Z</time></trkpt><trkpt lat="43.32245188551371" lon="1.432665195194141"><ele>228.79999999999998</ele><time>2026-04-30T17:29:15.999Z</time></trkpt><trkpt lat="43.32255763606416" lon="1.4325881567377334"><ele>228.59999999999997</ele><time>2026-04-30T17:29:17.999Z</time></trkpt><trkpt lat="43.32261254662084" lon="1.4325440004125536"><ele>228.4</ele><time>2026-04-30T17:29:18.999Z</time></trkpt><trkpt lat="43.32270587608576" lon="1.4324713326251637"><ele>228.2</ele><time>2026-04-30T17:29:20.999Z</time></trkpt><trkpt lat="43.32278950456617" lon="1.432409921875069"><ele>228.0</ele><time>2026-04-30T17:29:22.999Z</time></trkpt><trkpt lat="43.32285576938309" lon="1.4323486101708236"><ele>228.0</ele><time>2026-04-30T17:29:24.999Z</time></trkpt><trkpt lat="43.322913305122434" lon="1.4322788770686903"><ele>228.0</ele><time>2026-04-30T17:29:27.999Z</time></trkpt><trkpt lat="43.32299705078962" lon="1.432189258743792"><ele>228.0</ele><time>2026-04-30T17:29:29.999Z</time></trkpt><trkpt lat="43.32305147187157" lon="1.4321277096852667"><ele>228.0</ele><time>2026-04-30T17:29:31Z</time></trkpt><trkpt lat="43.323116801310725" lon="1.4320540629607252"><ele>228.0</ele><time>2026-04-30T17:29:32Z</time></trkpt><trkpt lat="43.323198309435845" lon="1.431954316705211"><ele>228.0</ele><time>2026-04-30T17:29:33Z</time></trkpt><trkpt lat="43.32326572100161" lon="1.4318309701696683"><ele>229.25</ele><time>2026-04-30T17:29:34Z</time></trkpt><trkpt lat="43.32331715931831" lon="1.4317256873690336"><ele>230.5</ele><time>2026-04-30T17:29:35Z</time></trkpt><trkpt lat="43.32337208587769" lon="1.4315581128672574"><ele>231.75</ele><time>2026-04-30T17:29:36Z</time></trkpt><trkpt lat="43.323436979182844" lon="1.4313745690917992"><ele>233.0</ele><time>2026-04-30T17:29:37Z</time></trkpt><trkpt lat="43.3235021072451" lon="1.4312121805345974"><ele>234.0</ele><time>2026-04-30T17:29:38Z</time></trkpt><trkpt lat="43.323565622458" lon="1.4310310446077177"><ele>235.0</ele><time>2026-04-30T17:29:39Z</time></trkpt><trkpt lat="43.323628596201665" lon="1.4308493440804977"><ele>236.0</ele><time>2026-04-30T17:29:40Z</time></trkpt><trkpt lat="43.323702431066465" lon="1.4306740290889088"><ele>237.0</ele><time>2026-04-30T17:29:41Z</time></trkpt><trkpt lat="43.32379321736045" lon="1.430560335792164"><ele>237.0</ele><time>2026-04-30T17:29:42Z</time></trkpt><trkpt lat="43.32386131814242" lon="1.4304859311814868"><ele>237.0</ele><time>2026-04-30T17:29:43Z</time></trkpt><trkpt lat="43.32393987936854" lon="1.4304514570989948"><ele>237.0</ele><time>2026-04-30T17:29:44Z</time></trkpt><trkpt lat="43.32403109043567" lon="1.4304129279193727"><ele>237.0</ele><time>2026-04-30T17:29:45Z</time></trkpt><trkpt lat="43.324116175333046" lon="1.430371651033264"><ele>237.0</ele><time>2026-04-30T17:29:46Z</time></trkpt><trkpt lat="43.32420245573058" lon="1.430329794182402"><ele>237.0</ele><time>2026-04-30T17:29:47Z</time></trkpt><trkpt lat="43.32428244004283" lon="1.4302892067527253"><ele>237.33333333333334</ele><time>2026-04-30T17:29:48Z</time></trkpt><trkpt lat="43.324364793348536" lon="1.430244493531692"><ele>237.66666666666669</ele><time>2026-04-30T17:29:49Z</time></trkpt><trkpt lat="43.324437677576434" lon="1.4302015105578763"><ele>238.0</ele><time>2026-04-30T17:29:50Z</time></trkpt><trkpt lat="43.32449706559881" lon="1.4300976657340938"><ele>238.33333333333334</ele><time>2026-04-30T17:29:51Z</time></trkpt><trkpt lat="43.32452829570996" lon="1.429980418954746"><ele>238.66666666666669</ele><time>2026-04-30T17:29:52Z</time></trkpt><trkpt lat="43.324520026650646" lon="1.4298603443804434"><ele>239.0</ele><time>2026-04-30T17:29:53Z</time></trkpt><trkpt lat="43.324506873600754" lon="1.429712355735872"><ele>239.79999999999998</ele><time>2026-04-30T17:29:54Z</time></trkpt><trkpt lat="43.324508787048224" lon="1.4295398754445912"><ele>240.59999999999997</ele><time>2026-04-30T17:29:55Z</time></trkpt><trkpt lat="43.324463772602044" lon="1.4294376887282192"><ele>241.4</ele><time>2026-04-30T17:29:56Z</time></trkpt><trkpt lat="43.32445088331219" lon="1.4293054775519576"><ele>242.2</ele><time>2026-04-30T17:29:57Z</time></trkpt><trkpt lat="43.32442703270568" lon="1.4291833114312895"><ele>243.0</ele><time>2026-04-30T17:29:58Z</time></trkpt><trkpt lat="43.32438824559807" lon="1.4290560622689077"><ele>243.0</ele><time>2026-04-30T17:29:59Z</time></trkpt><trkpt lat="43.32433228951414" lon="1.4289404980917468"><ele>243.0</ele><time>2026-04-30T17:30:00Z</time></trkpt><trkpt lat="43.324275893950166" lon="1.4288248092770444"><ele>243.0</ele><time>2026-04-30T17:30:01Z</time></trkpt><trkpt lat="43.3242294663101" lon="1.4287036326556455"><ele>243.0</ele><time>2026-04-30T17:30:02Z</time></trkpt><trkpt lat="43.32419211953325" lon="1.4285874143461308"><ele>243.0</ele><time>2026-04-30T17:30:03Z</time></trkpt><trkpt lat="43.324166973599446" lon="1.4284483792781972"><ele>243.8</ele><time>2026-04-30T17:30:04Z</time></trkpt><trkpt lat="43.324137808259295" lon="1.4283092347740527"><ele>244.60000000000002</ele><time>2026-04-30T17:30:05Z</time></trkpt><trkpt lat="43.324116324093616" lon="1.4281607145008575"><ele>245.39999999999998</ele><time>2026-04-30T17:30:06Z</time></trkpt><trkpt lat="43.324096262865844" lon="1.4280098520421702"><ele>246.2</ele><time>2026-04-30T17:30:07Z</time></trkpt><trkpt lat="43.32408141383545" lon="1.427852661201841"><ele>247.0</ele><time>2026-04-30T17:30:08Z</time></trkpt><trkpt lat="43.324068296378414" lon="1.4276856911951379"><ele>247.75</ele><time>2026-04-30T17:30:09Z</time></trkpt><trkpt lat="43.32404983634724" lon="1.4275078540790975"><ele>248.5</ele><time>2026-04-30T17:30:10Z</time></trkpt><trkpt lat="43.3240303048849" lon="1.4273308720088829"><ele>249.25</ele><time>2026-04-30T17:30:11Z</time></trkpt><trkpt lat="43.32401483494078" lon="1.427137807343338"><ele>250.0</ele><time>2026-04-30T17:30:12Z</time></trkpt><trkpt lat="43.32399668466782" lon="1.4269405567922844"><ele>250.75</ele><time>2026-04-30T17:30:13Z</time></trkpt><trkpt lat="43.323978780523134" lon="1.4267293135361878"><ele>251.5</ele><time>2026-04-30T17:30:14Z</time></trkpt><trkpt lat="43.32397043784374" lon="1.4265323322433525"><ele>252.25</ele><time>2026-04-30T17:30:15Z</time></trkpt><trkpt lat="43.323970360090776" lon="1.426357456001831"><ele>253.0</ele><time>2026-04-30T17:30:16Z</time></trkpt><trkpt lat="43.32398043638567" lon="1.4261778085035248"><ele>253.5</ele><time>2026-04-30T17:30:17Z</time></trkpt><trkpt lat="43.32399691651097" lon="1.4259983102184643"><ele>254.0</ele><time>2026-04-30T17:30:18Z</time></trkpt><trkpt lat="43.324014193371994" lon="1.4258340585207132"><ele>254.5</ele><time>2026-04-30T17:30:19Z</time></trkpt><trkpt lat="43.324025791636274" lon="1.4256896656044704"><ele>255.0</ele><time>2026-04-30T17:30:20Z</time></trkpt><trkpt lat="43.324032363025054" lon="1.4255458746891976"><ele>256.0</ele><time>2026-04-30T17:30:21Z</time></trkpt><trkpt lat="43.32404043375696" lon="1.4253942677619311"><ele>257.0</ele><time>2026-04-30T17:30:22Z</time></trkpt><trkpt lat="43.32405085731169" lon="1.425239575927144"><ele>258.0</ele><time>2026-04-30T17:30:23Z</time></trkpt><trkpt lat="43.32405972986614" lon="1.4250878810528083"><ele>259.0</ele><time>2026-04-30T17:30:24Z</time></trkpt><trkpt lat="43.32406943199632" lon="1.424943368810972"><ele>260.0</ele><time>2026-04-30T17:30:25Z</time></trkpt><trkpt lat="43.324089725574176" lon="1.4247976719956097"><ele>260.0</ele><time>2026-04-30T17:30:26Z</time></trkpt><trkpt lat="43.32408030636029" lon="1.4246665247150587"><ele>260.0</ele><time>2026-04-30T17:30:27Z</time></trkpt><trkpt lat="43.32406162013588" lon="1.4245654581878706"><ele>260.0</ele><time>2026-04-30T17:30:28Z</time></trkpt><trkpt lat="43.32402204712324" lon="1.4244703367030045"><ele>260.0</ele><time>2026-04-30T17:30:29Z</time></trkpt><trkpt lat="43.32396247071189" lon="1.4243559814401576"><ele>260.0</ele><time>2026-04-30T17:30:30Z</time></trkpt><trkpt lat="43.32391296174741" lon="1.4242127917726166"><ele>260.5</ele><time>2026-04-30T17:30:31Z</time></trkpt><trkpt lat="43.323854746373435" lon="1.4240775561602468"><ele>261.0</ele><time>2026-04-30T17:30:32Z</time></trkpt><trkpt lat="43.3237825928642" lon="1.4239173536684255"><ele>261.5</ele><time>2026-04-30T17:30:32.999Z</time></trkpt><trkpt lat="43.32371328909497" lon="1.423753965819665"><ele>262.0</ele><time>2026-04-30T17:30:33.999Z</time></trkpt><trkpt lat="43.323650694970034" lon="1.4235882881913442"><ele>263.75</ele><time>2026-04-30T17:30:34.999Z</time></trkpt><trkpt lat="43.32359950931211" lon="1.4234387166132612"><ele>265.5</ele><time>2026-04-30T17:30:35.999Z</time></trkpt><trkpt lat="43.323550557026195" lon="1.423293275651021"><ele>267.25</ele><time>2026-04-30T17:30:36.999Z</time></trkpt><trkpt lat="43.32350013037492" lon="1.4231362401367498"><ele>269.0</ele><time>2026-04-30T17:30:37.999Z</time></trkpt><trkpt lat="43.32344634702301" lon="1.4229778105789181"><ele>270.75</ele><time>2026-04-30T17:30:38.999Z</time></trkpt><trkpt lat="43.323389976320314" lon="1.422819053649178"><ele>272.5</ele><time>2026-04-30T17:30:39.999Z</time></trkpt><trkpt lat="43.32333645737057" lon="1.422668328101527"><ele>274.25</ele><time>2026-04-30T17:30:40.999Z</time></trkpt><trkpt lat="43.32328394910312" lon="1.4225204489479082"><ele>276.0</ele><time>2026-04-30T17:30:41.999Z</time></trkpt><trkpt lat="43.323236379509375" lon="1.4223864786030918"><ele>276.0</ele><time>2026-04-30T17:30:42.999Z</time></trkpt><trkpt lat="43.32318470635623" lon="1.422240951372984"><ele>276.0</ele><time>2026-04-30T17:30:43.999Z</time></trkpt><trkpt lat="43.323133800251824" lon="1.4221190532845838"><ele>276.0</ele><time>2026-04-30T17:30:44.999Z</time></trkpt><trkpt lat="43.32309790779353" lon="1.422045601575999"><ele>276.0</ele><time>2026-04-30T17:30:45.999Z</time></trkpt><trkpt lat="43.32307054327206" lon="1.421920069517605"><ele>276.0</ele><time>2026-04-30T17:30:47.999Z</time></trkpt><trkpt lat="43.323045459995996" lon="1.4217608492535536"><ele>277.6666666666667</ele><time>2026-04-30T17:30:50.999Z</time></trkpt><trkpt lat="43.32322816020169" lon="1.4215780433131895"><ele>279.33333333333337</ele><time>2026-04-30T17:30:52.999Z</time></trkpt><trkpt lat="43.32337964538026" lon="1.421588695673032"><ele>281.0</ele><time>2026-04-30T17:30:55.999Z</time></trkpt><trkpt lat="43.323487803380765" lon="1.4215773232067233"><ele>281.0</ele><time>2026-04-30T17:30:57.999Z</time></trkpt><trkpt lat="43.32357849794122" lon="1.4214964858116939"><ele>281.0</ele><time>2026-04-30T17:30:59.999Z</time></trkpt><trkpt lat="43.32363363330362" lon="1.4213650935983015"><ele>281.0</ele><time>2026-04-30T17:31:01.999Z</time></trkpt><trkpt lat="43.3237112066134" lon="1.4212500956844387"><ele>281.0</ele><time>2026-04-30T17:31:03.999Z</time></trkpt><trkpt lat="43.32366087135152" lon="1.421156735222599"><ele>281.0</ele><time>2026-04-30T17:31:05.999Z</time></trkpt><trkpt lat="43.323621903038976" lon="1.4210048199121763"><ele>282.0</ele><time>2026-04-30T17:31:07.999Z</time></trkpt><trkpt lat="43.323546539335325" lon="1.4208907527294659"><ele>283.0</ele><time>2026-04-30T17:31:09.999Z</time></trkpt><trkpt lat="43.32347505930025" lon="1.4208133562406469"><ele>284.0</ele><time>2026-04-30T17:31:11.999Z</time></trkpt><trkpt lat="43.32339882022374" lon="1.4207137626875854"><ele>285.0</ele><time>2026-04-30T17:31:13.999Z</time></trkpt><trkpt lat="43.323344689697" lon="1.420654987564016"><ele>286.0</ele><time>2026-04-30T17:31:14.999Z</time></trkpt><trkpt lat="43.32328451468822" lon="1.4205609167514066"><ele>286.0</ele><time>2026-04-30T17:31:15.999Z</time></trkpt><trkpt lat="43.323230608740886" lon="1.4204950636560412"><ele>286.0</ele><time>2026-04-30T17:31:16.999Z</time></trkpt><trkpt lat="43.32318763305545" lon="1.4204284521817625"><ele>286.0</ele><time>2026-04-30T17:31:17.999Z</time></trkpt><trkpt lat="43.32311591688229" lon="1.420265740077983"><ele>286.0</ele><time>2026-04-30T17:31:19.999Z</time></trkpt><trkpt lat="43.32307554999201" lon="1.4201016251917915"><ele>286.0</ele><time>2026-04-30T17:31:21.999Z</time></trkpt><trkpt lat="43.32307654240521" lon="1.419998293462353"><ele>286.3333333333333</ele><time>2026-04-30T17:31:22.999Z</time></trkpt><trkpt lat="43.323056958787454" lon="1.4198610524925566"><ele>286.66666666666663</ele><time>2026-04-30T17:31:24.999Z</time></trkpt><trkpt lat="43.323007276499254" lon="1.4197898755445195"><ele>287.0</ele><time>2026-04-30T17:31:26.999Z</time></trkpt><trkpt lat="43.32302617001744" lon="1.4196812341587912"><ele>287.3333333333333</ele><time>2026-04-30T17:31:28.999Z</time></trkpt><trkpt lat="43.3230767082497" lon="1.4196204255400857"><ele>287.6666666666667</ele><time>2026-04-30T17:31:29.999Z</time></trkpt><trkpt lat="43.323126998270496" lon="1.4195398257563394"><ele>288.0</ele><time>2026-04-30T17:31:31.999Z</time></trkpt><trkpt lat="43.323186027873454" lon="1.419474961633578"><ele>288.0</ele><time>2026-04-30T17:31:33.999Z</time></trkpt><trkpt lat="43.32319794032015" lon="1.419389322865419"><ele>288.0</ele><time>2026-04-30T17:31:35.999Z</time></trkpt><trkpt lat="43.32320391987897" lon="1.4192959561173157"><ele>288.0</ele><time>2026-04-30T17:31:41Z</time></trkpt><trkpt lat="43.32326859622479" lon="1.4191920727186556"><ele>288.0</ele><time>2026-04-30T17:31:44Z</time></trkpt><trkpt lat="43.323507415689555" lon="1.4191890338349307"><ele>288.00000000000006</ele><time>2026-04-30T17:31:51Z</time></trkpt><trkpt lat="43.323558919475374" lon="1.4192529436573957"><ele>288.0</ele><time>2026-04-30T17:32:35Z</time></trkpt><trkpt lat="43.323599590328136" lon="1.4193367945252464"><ele>288.0</ele><time>2026-04-30T17:33:06.999Z</time></trkpt><trkpt lat="43.32354952348652" lon="1.419400202903697"><ele>288.0</ele><time>2026-04-30T17:34:29Z</time></trkpt><trkpt lat="43.323481750824826" lon="1.41933150166806"><ele>288.0</ele><time>2026-04-30T17:36:05Z</time></trkpt><trkpt lat="43.32345717921301" lon="1.4192483776548042"><ele>288.00000000000006</ele><time>2026-04-30T17:36:07Z</time></trkpt><trkpt lat="43.32347063629258" lon="1.419130427994619"><ele>288.0</ele><time>2026-04-30T17:36:09Z</time></trkpt><trkpt lat="43.32355961899982" lon="1.41904131155049"><ele>288.0</ele><time>2026-04-30T17:36:11Z</time></trkpt><trkpt lat="43.32364772934079" lon="1.4190017593222113"><ele>288.0</ele><time>2026-04-30T17:36:13Z</time></trkpt><trkpt lat="43.32371553854693" lon="1.4190422559411044"><ele>288.0</ele><time>2026-04-30T17:36:16Z</time></trkpt><trkpt lat="43.32377170751" lon="1.419093434280524"><ele>288.0</ele><time>2026-04-30T17:36:18Z</time></trkpt><trkpt lat="43.323802788351934" lon="1.4192097549976521"><ele>288.0</ele><time>2026-04-30T17:36:21Z</time></trkpt><trkpt lat="43.32385134867263" lon="1.4192733815820209"><ele>288.0</ele><time>2026-04-30T17:37:03.999Z</time></trkpt><trkpt lat="43.3239902331982" lon="1.4192873836065958"><ele>287.5</ele><time>2026-04-30T17:37:13.999Z</time></trkpt><trkpt lat="43.32406443058549" lon="1.4192990592397343"><ele>287.0</ele><time>2026-04-30T17:37:14.999Z</time></trkpt><trkpt lat="43.32421881933203" lon="1.4192881209551806"><ele>286.5</ele><time>2026-04-30T17:37:16.999Z</time></trkpt><trkpt lat="43.32433946833894" lon="1.4192771440707537"><ele>286.0</ele><time>2026-04-30T17:37:18.999Z</time></trkpt><trkpt lat="43.32443206770659" lon="1.4193640561235499"><ele>286.0</ele><time>2026-04-30T17:37:20.999Z</time></trkpt><trkpt lat="43.32450177754478" lon="1.4193495257739515"><ele>286.0</ele><time>2026-04-30T17:37:22.999Z</time></trkpt><trkpt lat="43.324538626212345" lon="1.419278162307527"><ele>286.0</ele><time>2026-04-30T17:37:23.999Z</time></trkpt><trkpt lat="43.32459272180999" lon="1.4191830706197386"><ele>286.0</ele><time>2026-04-30T17:37:24.999Z</time></trkpt><trkpt lat="43.32464074383305" lon="1.419095322332341"><ele>286.0</ele><time>2026-04-30T17:37:25.999Z</time></trkpt><trkpt lat="43.32473492279714" lon="1.4189902333636675"><ele>286.0</ele><time>2026-04-30T17:37:27.999Z</time></trkpt><trkpt lat="43.32484542495566" lon="1.4189791379032464"><ele>285.40000000000003</ele><time>2026-04-30T17:37:30.999Z</time></trkpt><trkpt lat="43.32493210613807" lon="1.4190642908988402"><ele>284.8</ele><time>2026-04-30T17:37:32.999Z</time></trkpt><trkpt lat="43.325023685219655" lon="1.4191418286548492"><ele>284.20000000000005</ele><time>2026-04-30T17:37:34.999Z</time></trkpt><trkpt lat="43.32512699409746" lon="1.4192246189552675"><ele>283.6</ele><time>2026-04-30T17:37:36.999Z</time></trkpt><trkpt lat="43.32520624613989" lon="1.4192198791471027"><ele>283.0</ele><time>2026-04-30T17:37:38.999Z</time></trkpt><trkpt lat="43.32525787744798" lon="1.419146181161543"><ele>283.0</ele><time>2026-04-30T17:37:40.999Z</time></trkpt><trkpt lat="43.32533247425419" lon="1.4191575951499429"><ele>283.0</ele><time>2026-04-30T17:37:41.999Z</time></trkpt><trkpt lat="43.325396555973434" lon="1.4193142970734978"><ele>283.0</ele><time>2026-04-30T17:37:43.999Z</time></trkpt><trkpt lat="43.32546639933665" lon="1.419417433805494"><ele>283.0</ele><time>2026-04-30T17:37:44.999Z</time></trkpt><trkpt lat="43.32548827967341" lon="1.4195402190535515"><ele>283.0</ele><time>2026-04-30T17:37:45.999Z</time></trkpt><trkpt lat="43.3255130054288" lon="1.4196295651759878"><ele>281.8333333333333</ele><time>2026-04-30T17:37:46.999Z</time></trkpt><trkpt lat="43.32556244669827" lon="1.4196841463634178"><ele>280.66666666666663</ele><time>2026-04-30T17:37:47.999Z</time></trkpt><trkpt lat="43.32568090922331" lon="1.4197417180044962"><ele>279.5</ele><time>2026-04-30T17:37:49.999Z</time></trkpt><trkpt lat="43.32571246064312" lon="1.4198169144153108"><ele>278.3333333333333</ele><time>2026-04-30T17:37:50.999Z</time></trkpt><trkpt lat="43.32574281369342" lon="1.4199342384650675"><ele>277.1666666666667</ele><time>2026-04-30T17:37:51.999Z</time></trkpt><trkpt lat="43.32577243891466" lon="1.4200485119706792"><ele>276.0</ele><time>2026-04-30T17:37:52.999Z</time></trkpt><trkpt lat="43.325798018111186" lon="1.4201461985431403"><ele>276.0</ele><time>2026-04-30T17:37:53.999Z</time></trkpt><trkpt lat="43.32585814964791" lon="1.4202777790080412"><ele>276.0</ele><time>2026-04-30T17:37:56Z</time></trkpt><trkpt lat="43.3259152860521" lon="1.4203549364250012"><ele>276.0</ele><time>2026-04-30T17:37:58Z</time></trkpt><trkpt lat="43.32594780477999" lon="1.4204597643065042"><ele>276.0</ele><time>2026-04-30T17:38:00Z</time></trkpt><trkpt lat="43.32596802308749" lon="1.4205580996395795"><ele>276.0</ele><time>2026-04-30T17:38:01Z</time></trkpt><trkpt lat="43.32601550049294" lon="1.4206819870651095"><ele>275.6666666666667</ele><time>2026-04-30T17:38:02Z</time></trkpt><trkpt lat="43.3260578196279" lon="1.4208049842491037"><ele>275.3333333333333</ele><time>2026-04-30T17:38:03Z</time></trkpt><trkpt lat="43.32610714340529" lon="1.4209022759720178"><ele>275.0</ele><time>2026-04-30T17:38:04Z</time></trkpt><trkpt lat="43.326140870616015" lon="1.4209802650325747"><ele>274.66666666666663</ele><time>2026-04-30T17:38:05Z</time></trkpt><trkpt lat="43.32618483676854" lon="1.4210666771431415"><ele>274.3333333333333</ele><time>2026-04-30T17:38:06Z</time></trkpt><trkpt lat="43.326230486750994" lon="1.421158038143265"><ele>274.0</ele><time>2026-04-30T17:38:07Z</time></trkpt><trkpt lat="43.326269284611" lon="1.4212443476384287"><ele>273.4</ele><time>2026-04-30T17:38:08Z</time></trkpt><trkpt lat="43.32630536781499" lon="1.4213173427708945"><ele>272.79999999999995</ele><time>2026-04-30T17:38:09Z</time></trkpt><trkpt lat="43.3263978148427" lon="1.4213463618006843"><ele>272.20000000000005</ele><time>2026-04-30T17:38:11Z</time></trkpt><trkpt lat="43.326539186003366" lon="1.4212900849783756"><ele>271.6</ele><time>2026-04-30T17:38:13Z</time></trkpt><trkpt lat="43.32660860087551" lon="1.421243465589804"><ele>271.0</ele><time>2026-04-30T17:38:14Z</time></trkpt><trkpt lat="43.32669332144569" lon="1.4211649384025216"><ele>270.5</ele><time>2026-04-30T17:38:15Z</time></trkpt><trkpt lat="43.326779655754784" lon="1.4210901773370634"><ele>270.0</ele><time>2026-04-30T17:38:16Z</time></trkpt><trkpt lat="43.32689630895623" lon="1.4210145871675703"><ele>269.5</ele><time>2026-04-30T17:38:17Z</time></trkpt><trkpt lat="43.327018090427096" lon="1.4209346862661796"><ele>269.0</ele><time>2026-04-30T17:38:18Z</time></trkpt><trkpt lat="43.32711888214116" lon="1.4208778276002392"><ele>269.0</ele><time>2026-04-30T17:38:19Z</time></trkpt><trkpt lat="43.327177495946" lon="1.4208351146070204"><ele>269.0</ele><time>2026-04-30T17:38:20Z</time></trkpt><trkpt lat="43.32723168034901" lon="1.4207573133099565"><ele>269.0</ele><time>2026-04-30T17:38:22Z</time></trkpt><trkpt lat="43.32729044847192" lon="1.4207153901432183"><ele>269.0</ele><time>2026-04-30T17:38:25Z</time></trkpt><trkpt lat="43.32728642085092" lon="1.420610771636727"><ele>269.0</ele><time>2026-04-30T17:38:36Z</time></trkpt><trkpt lat="43.3272795207055" lon="1.420522963949386"><ele>269.0</ele><time>2026-04-30T17:38:37Z</time></trkpt><trkpt lat="43.32724757896277" lon="1.4204107915858684"><ele>269.0</ele><time>2026-04-30T17:38:38Z</time></trkpt><trkpt lat="43.32721015267584" lon="1.4202908330417363"><ele>270.0</ele><time>2026-04-30T17:38:39Z</time></trkpt><trkpt lat="43.32716732684314" lon="1.4201539401620593"><ele>271.0</ele><time>2026-04-30T17:38:40Z</time></trkpt><trkpt lat="43.32712292573912" lon="1.4200164257263281"><ele>272.0</ele><time>2026-04-30T17:38:41Z</time></trkpt><trkpt lat="43.327075149691126" lon="1.419868458786341"><ele>273.0</ele><time>2026-04-30T17:38:42Z</time></trkpt><trkpt lat="43.32701986209172" lon="1.4196986077385918"><ele>273.75</ele><time>2026-04-30T17:38:43Z</time></trkpt><trkpt lat="43.326960685115836" lon="1.4195200076715453"><ele>274.5</ele><time>2026-04-30T17:38:44Z</time></trkpt><trkpt lat="43.32688235601667" lon="1.4193327799136974"><ele>275.25</ele><time>2026-04-30T17:38:45Z</time></trkpt><trkpt lat="43.32682755330375" lon="1.4191472714388937"><ele>276.0</ele><time>2026-04-30T17:38:46Z</time></trkpt><trkpt lat="43.326756540821705" lon="1.4189688999957175"><ele>276.6666666666667</ele><time>2026-04-30T17:38:47Z</time></trkpt><trkpt lat="43.32667701562503" lon="1.418779358284343"><ele>277.33333333333337</ele><time>2026-04-30T17:38:48Z</time></trkpt><trkpt lat="43.32658392821623" lon="1.4186058897004492"><ele>278.0</ele><time>2026-04-30T17:38:49Z</time></trkpt><trkpt lat="43.32649585682661" lon="1.4184497262088407"><ele>278.0</ele><time>2026-04-30T17:38:50Z</time></trkpt><trkpt lat="43.326407219482164" lon="1.4182911906714621"><ele>278.0</ele><time>2026-04-30T17:38:51Z</time></trkpt><trkpt lat="43.326322849561855" lon="1.4181307803467735"><ele>278.0</ele><time>2026-04-30T17:38:52Z</time></trkpt><trkpt lat="43.326229924360455" lon="1.4179805089708848"><ele>278.0</ele><time>2026-04-30T17:38:53Z</time></trkpt><trkpt lat="43.32615187564393" lon="1.417821144029449"><ele>280.0</ele><time>2026-04-30T17:38:54Z</time></trkpt><trkpt lat="43.326063289923525" lon="1.4177049538705164"><ele>282.0</ele><time>2026-04-30T17:38:55Z</time></trkpt><trkpt lat="43.32597781297919" lon="1.4175498257835606"><ele>284.0</ele><time>2026-04-30T17:38:56Z</time></trkpt><trkpt lat="43.32588444133966" lon="1.417397699904871"><ele>286.0</ele><time>2026-04-30T17:38:57Z</time></trkpt><trkpt lat="43.32579214171418" lon="1.4172358983430153"><ele>286.66666666666663</ele><time>2026-04-30T17:38:58Z</time></trkpt><trkpt lat="43.325696083057025" lon="1.4170696044449522"><ele>287.3333333333333</ele><time>2026-04-30T17:38:59Z</time></trkpt><trkpt lat="43.32560037917334" lon="1.4169001337308862"><ele>288.0</ele><time>2026-04-30T17:39:00Z</time></trkpt><trkpt lat="43.325508599805666" lon="1.4167278629952051"><ele>289.6666666666667</ele><time>2026-04-30T17:39:00.999Z</time></trkpt><trkpt lat="43.3254235831139" lon="1.416546746402129"><ele>291.33333333333337</ele><time>2026-04-30T17:39:01.999Z</time></trkpt><trkpt lat="43.32533227280798" lon="1.4163694389791663"><ele>293.0</ele><time>2026-04-30T17:39:02.999Z</time></trkpt><trkpt lat="43.32524135657502" lon="1.4161956211953632"><ele>294.33333333333337</ele><time>2026-04-30T17:39:03.999Z</time></trkpt><trkpt lat="43.325150215249906" lon="1.4160135693717526"><ele>295.6666666666667</ele><time>2026-04-30T17:39:04.999Z</time></trkpt><trkpt lat="43.325060636075776" lon="1.4158305730899805"><ele>297.0</ele><time>2026-04-30T17:39:05.999Z</time></trkpt><trkpt lat="43.32496844210272" lon="1.4156528313222851"><ele>297.6666666666667</ele><time>2026-04-30T17:39:06.999Z</time></trkpt><trkpt lat="43.32488773924524" lon="1.4154571214825595"><ele>298.33333333333337</ele><time>2026-04-30T17:39:07.999Z</time></trkpt><trkpt lat="43.3247954276558" lon="1.4152729001445106"><ele>299.0</ele><time>2026-04-30T17:39:08.999Z</time></trkpt><trkpt lat="43.324699464366134" lon="1.4150815111384027"><ele>300.6666666666667</ele><time>2026-04-30T17:39:09.999Z</time></trkpt><trkpt lat="43.324600215612335" lon="1.4148854141076195"><ele>302.3333333333333</ele><time>2026-04-30T17:39:10.999Z</time></trkpt><trkpt lat="43.32449484790883" lon="1.4147015046924525"><ele>304.0</ele><time>2026-04-30T17:39:11.999Z</time></trkpt><trkpt lat="43.32440361995313" lon="1.4145072292469791"><ele>306.3333333333333</ele><time>2026-04-30T17:39:12.999Z</time></trkpt><trkpt lat="43.324316312214556" lon="1.414325723643345"><ele>308.6666666666667</ele><time>2026-04-30T17:39:13.999Z</time></trkpt><trkpt lat="43.324238732113" lon="1.4141429704599529"><ele>311.0</ele><time>2026-04-30T17:39:14.999Z</time></trkpt><trkpt lat="43.32414537212658" lon="1.4139638739460856"><ele>311.33333333333337</ele><time>2026-04-30T17:39:15.999Z</time></trkpt><trkpt lat="43.32404226353686" lon="1.4137856926330596"><ele>311.6666666666667</ele><time>2026-04-30T17:39:16.999Z</time></trkpt><trkpt lat="43.32392751316342" lon="1.4136393588122966"><ele>312.0</ele><time>2026-04-30T17:39:17.999Z</time></trkpt><trkpt lat="43.32382379419727" lon="1.4134681869595556"><ele>312.0</ele><time>2026-04-30T17:39:18.999Z</time></trkpt><trkpt lat="43.3237300512656" lon="1.41328718509389"><ele>312.0</ele><time>2026-04-30T17:39:19.999Z</time></trkpt><trkpt lat="43.32365355334069" lon="1.4130835031881182"><ele>312.0</ele><time>2026-04-30T17:39:20.999Z</time></trkpt><trkpt lat="43.323582047083036" lon="1.4128678799401866"><ele>312.6666666666667</ele><time>2026-04-30T17:39:21.999Z</time></trkpt><trkpt lat="43.32352761455845" lon="1.412629400774378"><ele>313.33333333333337</ele><time>2026-04-30T17:39:22.999Z</time></trkpt><trkpt lat="43.323492871088455" lon="1.4123807242113418"><ele>314.0</ele><time>2026-04-30T17:39:23.999Z</time></trkpt><trkpt lat="43.32345752579001" lon="1.412119317013065"><ele>314.0</ele><time>2026-04-30T17:39:24.999Z</time></trkpt><trkpt lat="43.32339547124545" lon="1.41186079200166"><ele>314.0</ele><time>2026-04-30T17:39:25.999Z</time></trkpt><trkpt lat="43.32331059759009" lon="1.4115989503264244"><ele>314.0</ele><time>2026-04-30T17:39:26.999Z</time></trkpt><trkpt lat="43.32322292492905" lon="1.411328133692889"><ele>314.0</ele><time>2026-04-30T17:39:27.999Z</time></trkpt><trkpt lat="43.323104877973094" lon="1.4110739634734464"><ele>314.0</ele><time>2026-04-30T17:39:28.999Z</time></trkpt><trkpt lat="43.32296706428616" lon="1.410826058607513"><ele>314.0</ele><time>2026-04-30T17:39:29.999Z</time></trkpt><trkpt lat="43.32283167931368" lon="1.4105701356895188"><ele>313.6666666666667</ele><time>2026-04-30T17:39:30.999Z</time></trkpt><trkpt lat="43.32271594892993" lon="1.4103018494808477"><ele>313.3333333333333</ele><time>2026-04-30T17:39:31.999Z</time></trkpt><trkpt lat="43.32260131827626" lon="1.4100754043205412"><ele>313.0</ele><time>2026-04-30T17:39:32.999Z</time></trkpt><trkpt lat="43.322496218297594" lon="1.4098682525122672"><ele>313.0</ele><time>2026-04-30T17:39:33.999Z</time></trkpt><trkpt lat="43.32239759154859" lon="1.409675017064598"><ele>313.0</ele><time>2026-04-30T17:39:34.999Z</time></trkpt><trkpt lat="43.322302224670835" lon="1.4094904628847262"><ele>313.0</ele><time>2026-04-30T17:39:35.999Z</time></trkpt><trkpt lat="43.32220823872564" lon="1.409346119527025"><ele>312.4</ele><time>2026-04-30T17:39:36.999Z</time></trkpt><trkpt lat="43.3221393964863" lon="1.4091964447059577"><ele>311.8</ele><time>2026-04-30T17:39:37.999Z</time></trkpt><trkpt lat="43.32208553157857" lon="1.4090886621955516"><ele>311.2</ele><time>2026-04-30T17:39:38.999Z</time></trkpt><trkpt lat="43.3220375882221" lon="1.4089869087976297"><ele>310.6</ele><time>2026-04-30T17:39:39.999Z</time></trkpt><trkpt lat="43.32199980886869" lon="1.4089090601198913"><ele>310.0</ele><time>2026-04-30T17:39:40.999Z</time></trkpt><trkpt lat="43.32196695389089" lon="1.4088058656899511"><ele>310.0</ele><time>2026-04-30T17:39:42.999Z</time></trkpt><trkpt lat="43.321863748322755" lon="1.4088980855459603"><ele>309.0</ele><time>2026-04-30T17:40:14Z</time></trkpt></trkseg></trk></gpx>